<?xml version="1.0" encoding="UTF-8" standalone="no" ?>
<gpx xmlns="http://www.topografix.com/GPX/1/1" xmlns:xsi="http://www.w3.org/2001/XMLSchema-instance" xsi:schemaLocation="http://www.topografix.com/GPX/1/1 http://www.topografix.com/GPX/1/1/gpx.xsd" version="1.1" creator="VisuGPX - https://www.visugpx.com">
  <metadata>
    <name>Rando sur Molliens au bois_13km</name>
    <desc><![CDATA[Walkmeter Marche 17 févr. 2013 09:04:14]]></desc>
  </metadata>
  <trk>
    <name><![CDATA[Chemins en Somme]]></name>
    <trkseg>
      <trkpt lat="49.98747" lon="2.38531">
        <ele>106.2</ele>
        <time>2013-02-17T08:04:14Z</time>
      </trkpt>
      <trkpt lat="49.98738" lon="2.38651">
        <ele>92.6</ele>
        <time>2013-02-17T08:04:38Z</time>
      </trkpt>
      <trkpt lat="49.98751" lon="2.3867">
        <ele>86.7</ele>
        <time>2013-02-17T08:04:50Z</time>
      </trkpt>
      <trkpt lat="49.98756" lon="2.3869">
        <ele>85.7</ele>
        <time>2013-02-17T08:05:01Z</time>
      </trkpt>
      <trkpt lat="49.98767" lon="2.38707">
        <ele>88.8</ele>
        <time>2013-02-17T08:05:12Z</time>
      </trkpt>
      <trkpt lat="49.98774" lon="2.38728">
        <ele>81.5</ele>
        <time>2013-02-17T08:05:24Z</time>
      </trkpt>
      <trkpt lat="49.98776" lon="2.38749">
        <ele>79.9</ele>
        <time>2013-02-17T08:05:36Z</time>
      </trkpt>
      <trkpt lat="49.98779" lon="2.38773">
        <ele>78.8</ele>
        <time>2013-02-17T08:05:47Z</time>
      </trkpt>
      <trkpt lat="49.98788" lon="2.3879">
        <ele>82</ele>
        <time>2013-02-17T08:05:58Z</time>
      </trkpt>
      <trkpt lat="49.98801" lon="2.38795">
        <ele>83.9</ele>
        <time>2013-02-17T08:06:06Z</time>
      </trkpt>
      <trkpt lat="49.98815" lon="2.388">
        <ele>80</ele>
        <time>2013-02-17T08:06:16Z</time>
      </trkpt>
      <trkpt lat="49.98825" lon="2.38817">
        <ele>85.5</ele>
        <time>2013-02-17T08:06:27Z</time>
      </trkpt>
      <trkpt lat="49.98835" lon="2.38832">
        <ele>89.6</ele>
        <time>2013-02-17T08:06:37Z</time>
      </trkpt>
      <trkpt lat="49.98843" lon="2.38851">
        <ele>92</ele>
        <time>2013-02-17T08:06:47Z</time>
      </trkpt>
      <trkpt lat="49.98851" lon="2.38873">
        <ele>96.7</ele>
        <time>2013-02-17T08:07:01Z</time>
      </trkpt>
      <trkpt lat="49.98856" lon="2.38894">
        <ele>95.6</ele>
        <time>2013-02-17T08:07:11Z</time>
      </trkpt>
      <trkpt lat="49.98854" lon="2.38915">
        <ele>94.9</ele>
        <time>2013-02-17T08:07:21Z</time>
      </trkpt>
      <trkpt lat="49.98854" lon="2.38938">
        <ele>97.6</ele>
        <time>2013-02-17T08:07:32Z</time>
      </trkpt>
      <trkpt lat="49.98851" lon="2.38958">
        <ele>95.6</ele>
        <time>2013-02-17T08:07:40Z</time>
      </trkpt>
      <trkpt lat="49.98853" lon="2.38983">
        <ele>103</ele>
        <time>2013-02-17T08:07:52Z</time>
      </trkpt>
      <trkpt lat="49.98854" lon="2.39006">
        <ele>101.4</ele>
        <time>2013-02-17T08:08:06Z</time>
      </trkpt>
      <trkpt lat="49.98854" lon="2.3903">
        <ele>99.6</ele>
        <time>2013-02-17T08:08:15Z</time>
      </trkpt>
      <trkpt lat="49.98856" lon="2.39051">
        <ele>103.2</ele>
        <time>2013-02-17T08:08:27Z</time>
      </trkpt>
      <trkpt lat="49.9886" lon="2.39073">
        <ele>105.1</ele>
        <time>2013-02-17T08:08:37Z</time>
      </trkpt>
      <trkpt lat="49.98864" lon="2.39093">
        <ele>105.2</ele>
        <time>2013-02-17T08:08:47Z</time>
      </trkpt>
      <trkpt lat="49.98871" lon="2.39117">
        <ele>101.9</ele>
        <time>2013-02-17T08:08:59Z</time>
      </trkpt>
      <trkpt lat="49.98878" lon="2.39135">
        <ele>98.9</ele>
        <time>2013-02-17T08:09:10Z</time>
      </trkpt>
      <trkpt lat="49.98886" lon="2.39157">
        <ele>100.4</ele>
        <time>2013-02-17T08:09:21Z</time>
      </trkpt>
      <trkpt lat="49.98891" lon="2.39177">
        <ele>100.7</ele>
        <time>2013-02-17T08:09:31Z</time>
      </trkpt>
      <trkpt lat="49.98896" lon="2.39199">
        <ele>94.5</ele>
        <time>2013-02-17T08:09:42Z</time>
      </trkpt>
      <trkpt lat="49.98902" lon="2.39218">
        <ele>95.9</ele>
        <time>2013-02-17T08:09:51Z</time>
      </trkpt>
      <trkpt lat="49.98909" lon="2.39237">
        <ele>96.5</ele>
        <time>2013-02-17T08:10:02Z</time>
      </trkpt>
      <trkpt lat="49.98913" lon="2.39258">
        <ele>102.1</ele>
        <time>2013-02-17T08:10:13Z</time>
      </trkpt>
      <trkpt lat="49.98919" lon="2.39281">
        <ele>99.2</ele>
        <time>2013-02-17T08:10:25Z</time>
      </trkpt>
      <trkpt lat="49.98926" lon="2.39301">
        <ele>103.1</ele>
        <time>2013-02-17T08:10:36Z</time>
      </trkpt>
      <trkpt lat="49.9893" lon="2.39321">
        <ele>108.8</ele>
        <time>2013-02-17T08:10:45Z</time>
      </trkpt>
      <trkpt lat="49.98932" lon="2.39343">
        <ele>113.4</ele>
        <time>2013-02-17T08:10:55Z</time>
      </trkpt>
      <trkpt lat="49.98932" lon="2.39365">
        <ele>119</ele>
        <time>2013-02-17T08:11:07Z</time>
      </trkpt>
      <trkpt lat="49.98931" lon="2.39387">
        <ele>113.2</ele>
        <time>2013-02-17T08:11:18Z</time>
      </trkpt>
      <trkpt lat="49.9893" lon="2.39409">
        <ele>112.9</ele>
        <time>2013-02-17T08:11:28Z</time>
      </trkpt>
      <trkpt lat="49.98928" lon="2.3943">
        <ele>116.9</ele>
        <time>2013-02-17T08:11:37Z</time>
      </trkpt>
      <trkpt lat="49.98926" lon="2.39452">
        <ele>120.9</ele>
        <time>2013-02-17T08:11:47Z</time>
      </trkpt>
      <trkpt lat="49.98924" lon="2.39474">
        <ele>111.8</ele>
        <time>2013-02-17T08:11:59Z</time>
      </trkpt>
      <trkpt lat="49.98921" lon="2.39495">
        <ele>113.7</ele>
        <time>2013-02-17T08:12:07Z</time>
      </trkpt>
      <trkpt lat="49.98919" lon="2.39518">
        <ele>120.3</ele>
        <time>2013-02-17T08:12:19Z</time>
      </trkpt>
      <trkpt lat="49.98919" lon="2.39539">
        <ele>120</ele>
        <time>2013-02-17T08:12:28Z</time>
      </trkpt>
      <trkpt lat="49.98918" lon="2.39561">
        <ele>117.6</ele>
        <time>2013-02-17T08:12:40Z</time>
      </trkpt>
      <trkpt lat="49.98918" lon="2.39583">
        <ele>115.9</ele>
        <time>2013-02-17T08:12:50Z</time>
      </trkpt>
      <trkpt lat="49.98918" lon="2.39606">
        <ele>120.5</ele>
        <time>2013-02-17T08:13:03Z</time>
      </trkpt>
      <trkpt lat="49.98916" lon="2.39627">
        <ele>121.9</ele>
        <time>2013-02-17T08:13:13Z</time>
      </trkpt>
      <trkpt lat="49.98915" lon="2.39649">
        <ele>121.1</ele>
        <time>2013-02-17T08:13:22Z</time>
      </trkpt>
      <trkpt lat="49.98915" lon="2.39672">
        <ele>118.2</ele>
        <time>2013-02-17T08:13:33Z</time>
      </trkpt>
      <trkpt lat="49.98913" lon="2.39694">
        <ele>125.9</ele>
        <time>2013-02-17T08:13:45Z</time>
      </trkpt>
      <trkpt lat="49.98913" lon="2.39721">
        <ele>119.5</ele>
        <time>2013-02-17T08:13:55Z</time>
      </trkpt>
      <trkpt lat="49.98914" lon="2.39743">
        <ele>113.5</ele>
        <time>2013-02-17T08:14:07Z</time>
      </trkpt>
      <trkpt lat="49.98913" lon="2.39764">
        <ele>113.1</ele>
        <time>2013-02-17T08:14:17Z</time>
      </trkpt>
      <trkpt lat="49.98902" lon="2.39776">
        <ele>124.3</ele>
        <time>2013-02-17T08:14:40Z</time>
      </trkpt>
      <trkpt lat="49.98887" lon="2.39777">
        <ele>122.1</ele>
        <time>2013-02-17T08:14:57Z</time>
      </trkpt>
      <trkpt lat="49.98868" lon="2.39776">
        <ele>124.2</ele>
        <time>2013-02-17T08:15:10Z</time>
      </trkpt>
      <trkpt lat="49.98854" lon="2.39772">
        <ele>129.4</ele>
        <time>2013-02-17T08:15:27Z</time>
      </trkpt>
      <trkpt lat="49.9884" lon="2.3978">
        <ele>134.8</ele>
        <time>2013-02-17T08:15:37Z</time>
      </trkpt>
      <trkpt lat="49.98825" lon="2.39784">
        <ele>120.3</ele>
        <time>2013-02-17T08:15:52Z</time>
      </trkpt>
      <trkpt lat="49.98808" lon="2.39782">
        <ele>112.8</ele>
        <time>2013-02-17T08:16:01Z</time>
      </trkpt>
      <trkpt lat="49.98795" lon="2.39774">
        <ele>116.2</ele>
        <time>2013-02-17T08:16:13Z</time>
      </trkpt>
      <trkpt lat="49.98781" lon="2.39775">
        <ele>109.2</ele>
        <time>2013-02-17T08:16:23Z</time>
      </trkpt>
      <trkpt lat="49.98768" lon="2.3978">
        <ele>108.9</ele>
        <time>2013-02-17T08:16:37Z</time>
      </trkpt>
      <trkpt lat="49.98753" lon="2.39784">
        <ele>112.7</ele>
        <time>2013-02-17T08:16:50Z</time>
      </trkpt>
      <trkpt lat="49.98738" lon="2.39788">
        <ele>110.2</ele>
        <time>2013-02-17T08:17:00Z</time>
      </trkpt>
      <trkpt lat="49.98724" lon="2.39787">
        <ele>105.4</ele>
        <time>2013-02-17T08:17:09Z</time>
      </trkpt>
      <trkpt lat="49.98709" lon="2.3979">
        <ele>98.2</ele>
        <time>2013-02-17T08:17:21Z</time>
      </trkpt>
      <trkpt lat="49.98696" lon="2.39794">
        <ele>92</ele>
        <time>2013-02-17T08:17:37Z</time>
      </trkpt>
      <trkpt lat="49.98682" lon="2.39801">
        <ele>89.9</ele>
        <time>2013-02-17T08:17:47Z</time>
      </trkpt>
      <trkpt lat="49.98668" lon="2.39809">
        <ele>93.9</ele>
        <time>2013-02-17T08:17:58Z</time>
      </trkpt>
      <trkpt lat="49.98655" lon="2.39818">
        <ele>96.1</ele>
        <time>2013-02-17T08:18:06Z</time>
      </trkpt>
      <trkpt lat="49.9864" lon="2.39825">
        <ele>90.7</ele>
        <time>2013-02-17T08:18:21Z</time>
      </trkpt>
      <trkpt lat="49.98625" lon="2.39827">
        <ele>94.6</ele>
        <time>2013-02-17T08:18:30Z</time>
      </trkpt>
      <trkpt lat="49.98609" lon="2.39842">
        <ele>98.2</ele>
        <time>2013-02-17T08:18:39Z</time>
      </trkpt>
      <trkpt lat="49.98596" lon="2.39849">
        <ele>104</ele>
        <time>2013-02-17T08:18:53Z</time>
      </trkpt>
      <trkpt lat="49.98582" lon="2.39856">
        <ele>108.2</ele>
        <time>2013-02-17T08:19:03Z</time>
      </trkpt>
      <trkpt lat="49.98568" lon="2.39864">
        <ele>112.2</ele>
        <time>2013-02-17T08:19:13Z</time>
      </trkpt>
      <trkpt lat="49.98552" lon="2.3987">
        <ele>115.5</ele>
        <time>2013-02-17T08:19:24Z</time>
      </trkpt>
      <trkpt lat="49.9854" lon="2.39882">
        <ele>116.9</ele>
        <time>2013-02-17T08:19:37Z</time>
      </trkpt>
      <trkpt lat="49.98526" lon="2.39895">
        <ele>108.6</ele>
        <time>2013-02-17T08:19:52Z</time>
      </trkpt>
      <trkpt lat="49.98521" lon="2.39919">
        <ele>106.4</ele>
        <time>2013-02-17T08:20:07Z</time>
      </trkpt>
      <trkpt lat="49.98511" lon="2.39934">
        <ele>92</ele>
        <time>2013-02-17T08:20:29Z</time>
      </trkpt>
      <trkpt lat="49.98501" lon="2.39951">
        <ele>98.1</ele>
        <time>2013-02-17T08:20:39Z</time>
      </trkpt>
      <trkpt lat="49.9849" lon="2.3997">
        <ele>104.3</ele>
        <time>2013-02-17T08:20:54Z</time>
      </trkpt>
      <trkpt lat="49.98484" lon="2.39991">
        <ele>108.8</ele>
        <time>2013-02-17T08:21:01Z</time>
      </trkpt>
      <trkpt lat="49.98478" lon="2.40015">
        <ele>110.9</ele>
        <time>2013-02-17T08:21:16Z</time>
      </trkpt>
      <trkpt lat="49.98469" lon="2.40035">
        <ele>101.2</ele>
        <time>2013-02-17T08:21:26Z</time>
      </trkpt>
      <trkpt lat="49.98459" lon="2.40057">
        <ele>101.3</ele>
        <time>2013-02-17T08:21:43Z</time>
      </trkpt>
      <trkpt lat="49.98449" lon="2.40074">
        <ele>102.6</ele>
        <time>2013-02-17T08:21:52Z</time>
      </trkpt>
      <trkpt lat="49.98444" lon="2.40083">
        <ele>105.9</ele>
        <time>2013-02-17T08:21:59Z</time>
      </trkpt>
      <trkpt lat="49.98443" lon="2.40091">
        <ele>112.4</ele>
        <time>2013-02-17T08:22:12Z</time>
      </trkpt>
      <trkpt lat="49.9843" lon="2.40153">
        <ele>114.4</ele>
        <time>2013-02-17T08:22:17Z</time>
      </trkpt>
      <trkpt lat="49.98445" lon="2.4013">
        <ele>116.4</ele>
        <time>2013-02-17T08:22:21Z</time>
      </trkpt>
      <trkpt lat="49.98459" lon="2.40126">
        <ele>118.3</ele>
        <time>2013-02-17T08:22:25Z</time>
      </trkpt>
      <trkpt lat="49.98446" lon="2.40148">
        <ele>122.1</ele>
        <time>2013-02-17T08:22:33Z</time>
      </trkpt>
      <trkpt lat="49.98432" lon="2.40159">
        <ele>125.4</ele>
        <time>2013-02-17T08:22:40Z</time>
      </trkpt>
      <trkpt lat="49.98416" lon="2.40176">
        <ele>127.3</ele>
        <time>2013-02-17T08:22:44Z</time>
      </trkpt>
      <trkpt lat="49.98414" lon="2.40183">
        <ele>127.8</ele>
        <time>2013-02-17T08:22:45Z</time>
      </trkpt>
      <trkpt lat="49.98397" lon="2.40191">
        <ele>114.4</ele>
        <time>2013-02-17T08:23:03Z</time>
      </trkpt>
      <trkpt lat="49.9838" lon="2.40193">
        <ele>110.2</ele>
        <time>2013-02-17T08:23:08Z</time>
      </trkpt>
      <trkpt lat="49.98368" lon="2.40178">
        <ele>101.3</ele>
        <time>2013-02-17T08:23:25Z</time>
      </trkpt>
      <trkpt lat="49.9836" lon="2.40162">
        <ele>99.9</ele>
        <time>2013-02-17T08:23:33Z</time>
      </trkpt>
      <trkpt lat="49.9835" lon="2.40146">
        <ele>97.1</ele>
        <time>2013-02-17T08:23:43Z</time>
      </trkpt>
      <trkpt lat="49.98339" lon="2.40132">
        <ele>91.7</ele>
        <time>2013-02-17T08:23:55Z</time>
      </trkpt>
      <trkpt lat="49.98308" lon="2.40131">
        <ele>89.5</ele>
        <time>2013-02-17T08:24:05Z</time>
      </trkpt>
      <trkpt lat="49.98293" lon="2.40128">
        <ele>91.6</ele>
        <time>2013-02-17T08:24:22Z</time>
      </trkpt>
      <trkpt lat="49.98288" lon="2.40126">
        <ele>91.8</ele>
        <time>2013-02-17T08:24:24Z</time>
      </trkpt>
      <trkpt lat="49.98274" lon="2.40134">
        <ele>92.6</ele>
        <time>2013-02-17T08:24:32Z</time>
      </trkpt>
      <trkpt lat="49.98265" lon="2.40138">
        <ele>93</ele>
        <time>2013-02-17T08:24:40Z</time>
      </trkpt>
      <trkpt lat="49.98255" lon="2.40149">
        <ele>94.3</ele>
        <time>2013-02-17T08:24:50Z</time>
      </trkpt>
      <trkpt lat="49.98245" lon="2.40159">
        <ele>102.5</ele>
        <time>2013-02-17T08:26:18Z</time>
      </trkpt>
      <trkpt lat="49.98245" lon="2.40159">
        <ele>102.5</ele>
        <time>2013-02-17T08:27:33Z</time>
      </trkpt>
      <trkpt lat="49.98222" lon="2.40177">
        <ele>104</ele>
        <time>2013-02-17T08:27:34Z</time>
      </trkpt>
      <trkpt lat="49.98222" lon="2.40177">
        <ele>104</ele>
        <time>2013-02-17T08:28:40Z</time>
      </trkpt>
      <trkpt lat="49.9821" lon="2.40188">
        <ele>99.1</ele>
        <time>2013-02-17T08:28:48Z</time>
      </trkpt>
      <trkpt lat="49.98206" lon="2.40209">
        <ele>100</ele>
        <time>2013-02-17T08:29:02Z</time>
      </trkpt>
      <trkpt lat="49.98202" lon="2.4023">
        <ele>97.3</ele>
        <time>2013-02-17T08:29:14Z</time>
      </trkpt>
      <trkpt lat="49.98196" lon="2.40252">
        <ele>106.6</ele>
        <time>2013-02-17T08:29:24Z</time>
      </trkpt>
      <trkpt lat="49.98192" lon="2.40275">
        <ele>109.2</ele>
        <time>2013-02-17T08:29:31Z</time>
      </trkpt>
      <trkpt lat="49.98188" lon="2.40296">
        <ele>107.8</ele>
        <time>2013-02-17T08:29:40Z</time>
      </trkpt>
      <trkpt lat="49.98177" lon="2.40318">
        <ele>104.5</ele>
        <time>2013-02-17T08:30:02Z</time>
      </trkpt>
      <trkpt lat="49.9817" lon="2.40339">
        <ele>106.6</ele>
        <time>2013-02-17T08:30:10Z</time>
      </trkpt>
      <trkpt lat="49.98153" lon="2.40368">
        <ele>104.6</ele>
        <time>2013-02-17T08:30:28Z</time>
      </trkpt>
      <trkpt lat="49.98146" lon="2.40388">
        <ele>102.8</ele>
        <time>2013-02-17T08:30:48Z</time>
      </trkpt>
      <trkpt lat="49.98139" lon="2.40408">
        <ele>110.4</ele>
        <time>2013-02-17T08:31:05Z</time>
      </trkpt>
      <trkpt lat="49.98134" lon="2.40435">
        <ele>107.1</ele>
        <time>2013-02-17T08:31:16Z</time>
      </trkpt>
      <trkpt lat="49.98131" lon="2.40456">
        <ele>99</ele>
        <time>2013-02-17T08:31:27Z</time>
      </trkpt>
      <trkpt lat="49.9813" lon="2.40478">
        <ele>94.2</ele>
        <time>2013-02-17T08:31:33Z</time>
      </trkpt>
      <trkpt lat="49.98126" lon="2.40501">
        <ele>101.6</ele>
        <time>2013-02-17T08:31:43Z</time>
      </trkpt>
      <trkpt lat="49.98123" lon="2.40523">
        <ele>100</ele>
        <time>2013-02-17T08:31:50Z</time>
      </trkpt>
      <trkpt lat="49.9812" lon="2.40546">
        <ele>96.7</ele>
        <time>2013-02-17T08:32:02Z</time>
      </trkpt>
      <trkpt lat="49.98116" lon="2.4057">
        <ele>103.6</ele>
        <time>2013-02-17T08:32:17Z</time>
      </trkpt>
      <trkpt lat="49.98111" lon="2.40592">
        <ele>100.3</ele>
        <time>2013-02-17T08:32:31Z</time>
      </trkpt>
      <trkpt lat="49.9811" lon="2.40614">
        <ele>89.6</ele>
        <time>2013-02-17T08:32:45Z</time>
      </trkpt>
      <trkpt lat="49.98101" lon="2.40642">
        <ele>91.1</ele>
        <time>2013-02-17T08:33:03Z</time>
      </trkpt>
      <trkpt lat="49.981" lon="2.40665">
        <ele>97.4</ele>
        <time>2013-02-17T08:33:25Z</time>
      </trkpt>
      <trkpt lat="49.98096" lon="2.40689">
        <ele>99.7</ele>
        <time>2013-02-17T08:33:30Z</time>
      </trkpt>
      <trkpt lat="49.98092" lon="2.40714">
        <ele>98.2</ele>
        <time>2013-02-17T08:33:39Z</time>
      </trkpt>
      <trkpt lat="49.98087" lon="2.40736">
        <ele>96.6</ele>
        <time>2013-02-17T08:33:48Z</time>
      </trkpt>
      <trkpt lat="49.98084" lon="2.40758">
        <ele>96.5</ele>
        <time>2013-02-17T08:33:55Z</time>
      </trkpt>
      <trkpt lat="49.98081" lon="2.40782">
        <ele>100.2</ele>
        <time>2013-02-17T08:34:04Z</time>
      </trkpt>
      <trkpt lat="49.98077" lon="2.40802">
        <ele>98.3</ele>
        <time>2013-02-17T08:34:13Z</time>
      </trkpt>
      <trkpt lat="49.98072" lon="2.40825">
        <ele>96.1</ele>
        <time>2013-02-17T08:34:23Z</time>
      </trkpt>
      <trkpt lat="49.98068" lon="2.40845">
        <ele>98.8</ele>
        <time>2013-02-17T08:34:34Z</time>
      </trkpt>
      <trkpt lat="49.98052" lon="2.40881">
        <ele>105</ele>
        <time>2013-02-17T08:34:48Z</time>
      </trkpt>
      <trkpt lat="49.98047" lon="2.40902">
        <ele>104.1</ele>
        <time>2013-02-17T08:35:07Z</time>
      </trkpt>
      <trkpt lat="49.98042" lon="2.40923">
        <ele>93.4</ele>
        <time>2013-02-17T08:35:19Z</time>
      </trkpt>
      <trkpt lat="49.98038" lon="2.40943">
        <ele>100.1</ele>
        <time>2013-02-17T08:35:32Z</time>
      </trkpt>
      <trkpt lat="49.9803" lon="2.40962">
        <ele>99.3</ele>
        <time>2013-02-17T08:35:42Z</time>
      </trkpt>
      <trkpt lat="49.98012" lon="2.40984">
        <ele>97.8</ele>
        <time>2013-02-17T08:35:56Z</time>
      </trkpt>
      <trkpt lat="49.98004" lon="2.41002">
        <ele>96.6</ele>
        <time>2013-02-17T08:36:08Z</time>
      </trkpt>
      <trkpt lat="49.97998" lon="2.41022">
        <ele>94.7</ele>
        <time>2013-02-17T08:36:19Z</time>
      </trkpt>
      <trkpt lat="49.9799" lon="2.41041">
        <ele>99.7</ele>
        <time>2013-02-17T08:36:30Z</time>
      </trkpt>
      <trkpt lat="49.97984" lon="2.41068">
        <ele>94.8</ele>
        <time>2013-02-17T08:36:39Z</time>
      </trkpt>
      <trkpt lat="49.97983" lon="2.41086">
        <ele>94.3</ele>
        <time>2013-02-17T08:36:51Z</time>
      </trkpt>
      <trkpt lat="49.97969" lon="2.41126">
        <ele>96.8</ele>
        <time>2013-02-17T08:37:03Z</time>
      </trkpt>
      <trkpt lat="49.97965" lon="2.41151">
        <ele>88.6</ele>
        <time>2013-02-17T08:37:22Z</time>
      </trkpt>
      <trkpt lat="49.9796" lon="2.41182">
        <ele>90.2</ele>
        <time>2013-02-17T08:37:34Z</time>
      </trkpt>
      <trkpt lat="49.97953" lon="2.41201">
        <ele>91.3</ele>
        <time>2013-02-17T08:37:42Z</time>
      </trkpt>
      <trkpt lat="49.97945" lon="2.4122">
        <ele>101.5</ele>
        <time>2013-02-17T08:37:58Z</time>
      </trkpt>
      <trkpt lat="49.97941" lon="2.41241">
        <ele>102.4</ele>
        <time>2013-02-17T08:38:04Z</time>
      </trkpt>
      <trkpt lat="49.97937" lon="2.41265">
        <ele>92.2</ele>
        <time>2013-02-17T08:38:17Z</time>
      </trkpt>
      <trkpt lat="49.9794" lon="2.41291">
        <ele>97.2</ele>
        <time>2013-02-17T08:38:30Z</time>
      </trkpt>
      <trkpt lat="49.97937" lon="2.41313">
        <ele>97.6</ele>
        <time>2013-02-17T08:38:40Z</time>
      </trkpt>
      <trkpt lat="49.97931" lon="2.41344">
        <ele>92.9</ele>
        <time>2013-02-17T08:38:52Z</time>
      </trkpt>
      <trkpt lat="49.97929" lon="2.41366">
        <ele>87.5</ele>
        <time>2013-02-17T08:39:08Z</time>
      </trkpt>
      <trkpt lat="49.97929" lon="2.41388">
        <ele>86.8</ele>
        <time>2013-02-17T08:39:18Z</time>
      </trkpt>
      <trkpt lat="49.97927" lon="2.41409">
        <ele>91.7</ele>
        <time>2013-02-17T08:39:26Z</time>
      </trkpt>
      <trkpt lat="49.97925" lon="2.41431">
        <ele>87.9</ele>
        <time>2013-02-17T08:39:35Z</time>
      </trkpt>
      <trkpt lat="49.97924" lon="2.41454">
        <ele>86.5</ele>
        <time>2013-02-17T08:39:47Z</time>
      </trkpt>
      <trkpt lat="49.97921" lon="2.41478">
        <ele>90</ele>
        <time>2013-02-17T08:39:59Z</time>
      </trkpt>
      <trkpt lat="49.97921" lon="2.41499">
        <ele>90.2</ele>
        <time>2013-02-17T08:40:10Z</time>
      </trkpt>
      <trkpt lat="49.97919" lon="2.41526">
        <ele>88.3</ele>
        <time>2013-02-17T08:40:20Z</time>
      </trkpt>
      <trkpt lat="49.97916" lon="2.41548">
        <ele>87.6</ele>
        <time>2013-02-17T08:40:31Z</time>
      </trkpt>
      <trkpt lat="49.97912" lon="2.41569">
        <ele>87.2</ele>
        <time>2013-02-17T08:40:41Z</time>
      </trkpt>
      <trkpt lat="49.97912" lon="2.4159">
        <ele>86.7</ele>
        <time>2013-02-17T08:40:51Z</time>
      </trkpt>
      <trkpt lat="49.97911" lon="2.41612">
        <ele>85.5</ele>
        <time>2013-02-17T08:41:04Z</time>
      </trkpt>
      <trkpt lat="49.97908" lon="2.41634">
        <ele>84.6</ele>
        <time>2013-02-17T08:41:15Z</time>
      </trkpt>
      <trkpt lat="49.97902" lon="2.41662">
        <ele>83.4</ele>
        <time>2013-02-17T08:41:28Z</time>
      </trkpt>
      <trkpt lat="49.97897" lon="2.41682">
        <ele>88.5</ele>
        <time>2013-02-17T08:41:40Z</time>
      </trkpt>
      <trkpt lat="49.97891" lon="2.41706">
        <ele>89.4</ele>
        <time>2013-02-17T08:41:50Z</time>
      </trkpt>
      <trkpt lat="49.97885" lon="2.41726">
        <ele>83.2</ele>
        <time>2013-02-17T08:42:04Z</time>
      </trkpt>
      <trkpt lat="49.97881" lon="2.41749">
        <ele>82.7</ele>
        <time>2013-02-17T08:42:15Z</time>
      </trkpt>
      <trkpt lat="49.97878" lon="2.4177">
        <ele>80.5</ele>
        <time>2013-02-17T08:42:24Z</time>
      </trkpt>
      <trkpt lat="49.97873" lon="2.41792">
        <ele>80.9</ele>
        <time>2013-02-17T08:42:33Z</time>
      </trkpt>
      <trkpt lat="49.97868" lon="2.41814">
        <ele>82.3</ele>
        <time>2013-02-17T08:42:46Z</time>
      </trkpt>
      <trkpt lat="49.97864" lon="2.41835">
        <ele>82.2</ele>
        <time>2013-02-17T08:42:56Z</time>
      </trkpt>
      <trkpt lat="49.97858" lon="2.41856">
        <ele>82.3</ele>
        <time>2013-02-17T08:43:07Z</time>
      </trkpt>
      <trkpt lat="49.97853" lon="2.41883">
        <ele>79.9</ele>
        <time>2013-02-17T08:43:18Z</time>
      </trkpt>
      <trkpt lat="49.97849" lon="2.41904">
        <ele>81.6</ele>
        <time>2013-02-17T08:43:30Z</time>
      </trkpt>
      <trkpt lat="49.97843" lon="2.4193">
        <ele>84.7</ele>
        <time>2013-02-17T08:43:41Z</time>
      </trkpt>
      <trkpt lat="49.97842" lon="2.41951">
        <ele>86.1</ele>
        <time>2013-02-17T08:43:50Z</time>
      </trkpt>
      <trkpt lat="49.97842" lon="2.41972">
        <ele>82.2</ele>
        <time>2013-02-17T08:44:02Z</time>
      </trkpt>
      <trkpt lat="49.9784" lon="2.41993">
        <ele>79.5</ele>
        <time>2013-02-17T08:44:14Z</time>
      </trkpt>
      <trkpt lat="49.97835" lon="2.42014">
        <ele>79.4</ele>
        <time>2013-02-17T08:44:24Z</time>
      </trkpt>
      <trkpt lat="49.97832" lon="2.42035">
        <ele>85.1</ele>
        <time>2013-02-17T08:44:35Z</time>
      </trkpt>
      <trkpt lat="49.97827" lon="2.42054">
        <ele>83.5</ele>
        <time>2013-02-17T08:44:44Z</time>
      </trkpt>
      <trkpt lat="49.97821" lon="2.42074">
        <ele>82.7</ele>
        <time>2013-02-17T08:44:54Z</time>
      </trkpt>
      <trkpt lat="49.97815" lon="2.42094">
        <ele>82.3</ele>
        <time>2013-02-17T08:45:05Z</time>
      </trkpt>
      <trkpt lat="49.97808" lon="2.42115">
        <ele>84.1</ele>
        <time>2013-02-17T08:45:15Z</time>
      </trkpt>
      <trkpt lat="49.97801" lon="2.42134">
        <ele>79.3</ele>
        <time>2013-02-17T08:45:24Z</time>
      </trkpt>
      <trkpt lat="49.97798" lon="2.42155">
        <ele>82.7</ele>
        <time>2013-02-17T08:45:35Z</time>
      </trkpt>
      <trkpt lat="49.97794" lon="2.42176">
        <ele>84.2</ele>
        <time>2013-02-17T08:45:46Z</time>
      </trkpt>
      <trkpt lat="49.97789" lon="2.42198">
        <ele>84.7</ele>
        <time>2013-02-17T08:45:56Z</time>
      </trkpt>
      <trkpt lat="49.97784" lon="2.42219">
        <ele>81.7</ele>
        <time>2013-02-17T08:46:06Z</time>
      </trkpt>
      <trkpt lat="49.9778" lon="2.4224">
        <ele>79.9</ele>
        <time>2013-02-17T08:46:17Z</time>
      </trkpt>
      <trkpt lat="49.97778" lon="2.42261">
        <ele>79.7</ele>
        <time>2013-02-17T08:46:26Z</time>
      </trkpt>
      <trkpt lat="49.97776" lon="2.42283">
        <ele>80.3</ele>
        <time>2013-02-17T08:46:37Z</time>
      </trkpt>
      <trkpt lat="49.97774" lon="2.42304">
        <ele>77.6</ele>
        <time>2013-02-17T08:46:48Z</time>
      </trkpt>
      <trkpt lat="49.97772" lon="2.42327">
        <ele>81.1</ele>
        <time>2013-02-17T08:47:01Z</time>
      </trkpt>
      <trkpt lat="49.97771" lon="2.42349">
        <ele>83.6</ele>
        <time>2013-02-17T08:47:13Z</time>
      </trkpt>
      <trkpt lat="49.97759" lon="2.42387">
        <ele>75.2</ele>
        <time>2013-02-17T08:47:28Z</time>
      </trkpt>
      <trkpt lat="49.97759" lon="2.42387">
        <ele>75.2</ele>
        <time>2013-02-17T08:50:09Z</time>
      </trkpt>
      <trkpt lat="49.97748" lon="2.42403">
        <ele>69</ele>
        <time>2013-02-17T08:50:15Z</time>
      </trkpt>
      <trkpt lat="49.97734" lon="2.42409">
        <ele>66.1</ele>
        <time>2013-02-17T08:50:30Z</time>
      </trkpt>
      <trkpt lat="49.97721" lon="2.42412">
        <ele>65.6</ele>
        <time>2013-02-17T08:50:43Z</time>
      </trkpt>
      <trkpt lat="49.9771" lon="2.42426">
        <ele>68.2</ele>
        <time>2013-02-17T08:50:55Z</time>
      </trkpt>
      <trkpt lat="49.97702" lon="2.42446">
        <ele>65.7</ele>
        <time>2013-02-17T08:51:07Z</time>
      </trkpt>
      <trkpt lat="49.97695" lon="2.42465">
        <ele>66</ele>
        <time>2013-02-17T08:51:18Z</time>
      </trkpt>
      <trkpt lat="49.97689" lon="2.42486">
        <ele>70</ele>
        <time>2013-02-17T08:51:30Z</time>
      </trkpt>
      <trkpt lat="49.97683" lon="2.42507">
        <ele>70.5</ele>
        <time>2013-02-17T08:51:40Z</time>
      </trkpt>
      <trkpt lat="49.97678" lon="2.42531">
        <ele>70.9</ele>
        <time>2013-02-17T08:52:03Z</time>
      </trkpt>
      <trkpt lat="49.97672" lon="2.42554">
        <ele>64.3</ele>
        <time>2013-02-17T08:52:11Z</time>
      </trkpt>
      <trkpt lat="49.97667" lon="2.42577">
        <ele>61</ele>
        <time>2013-02-17T08:52:18Z</time>
      </trkpt>
      <trkpt lat="49.97661" lon="2.42598">
        <ele>59.9</ele>
        <time>2013-02-17T08:52:29Z</time>
      </trkpt>
      <trkpt lat="49.97652" lon="2.42616">
        <ele>59.3</ele>
        <time>2013-02-17T08:52:40Z</time>
      </trkpt>
      <trkpt lat="49.97644" lon="2.42633">
        <ele>54.8</ele>
        <time>2013-02-17T08:52:52Z</time>
      </trkpt>
      <trkpt lat="49.97639" lon="2.42655">
        <ele>60.8</ele>
        <time>2013-02-17T08:53:00Z</time>
      </trkpt>
      <trkpt lat="49.9763" lon="2.42671">
        <ele>66.2</ele>
        <time>2013-02-17T08:53:09Z</time>
      </trkpt>
      <trkpt lat="49.97621" lon="2.4269">
        <ele>61.1</ele>
        <time>2013-02-17T08:53:20Z</time>
      </trkpt>
      <trkpt lat="49.97615" lon="2.42708">
        <ele>62.5</ele>
        <time>2013-02-17T08:53:31Z</time>
      </trkpt>
      <trkpt lat="49.97608" lon="2.4273">
        <ele>63.9</ele>
        <time>2013-02-17T08:53:42Z</time>
      </trkpt>
      <trkpt lat="49.97602" lon="2.4275">
        <ele>61.3</ele>
        <time>2013-02-17T08:53:53Z</time>
      </trkpt>
      <trkpt lat="49.97598" lon="2.4277">
        <ele>55.9</ele>
        <time>2013-02-17T08:54:05Z</time>
      </trkpt>
      <trkpt lat="49.97593" lon="2.4279">
        <ele>56.1</ele>
        <time>2013-02-17T08:54:17Z</time>
      </trkpt>
      <trkpt lat="49.97587" lon="2.42813">
        <ele>58.3</ele>
        <time>2013-02-17T08:54:27Z</time>
      </trkpt>
      <trkpt lat="49.97584" lon="2.42833">
        <ele>58.8</ele>
        <time>2013-02-17T08:54:35Z</time>
      </trkpt>
      <trkpt lat="49.97578" lon="2.42853">
        <ele>61.2</ele>
        <time>2013-02-17T08:54:46Z</time>
      </trkpt>
      <trkpt lat="49.97571" lon="2.42873">
        <ele>57.8</ele>
        <time>2013-02-17T08:54:58Z</time>
      </trkpt>
      <trkpt lat="49.97563" lon="2.42898">
        <ele>58.6</ele>
        <time>2013-02-17T08:55:08Z</time>
      </trkpt>
      <trkpt lat="49.97557" lon="2.42916">
        <ele>58.8</ele>
        <time>2013-02-17T08:55:18Z</time>
      </trkpt>
      <trkpt lat="49.9755" lon="2.42936">
        <ele>57.5</ele>
        <time>2013-02-17T08:55:30Z</time>
      </trkpt>
      <trkpt lat="49.97541" lon="2.42953">
        <ele>54.3</ele>
        <time>2013-02-17T08:55:45Z</time>
      </trkpt>
      <trkpt lat="49.97529" lon="2.42961">
        <ele>48.9</ele>
        <time>2013-02-17T08:55:57Z</time>
      </trkpt>
      <trkpt lat="49.97516" lon="2.42972">
        <ele>48.4</ele>
        <time>2013-02-17T08:56:09Z</time>
      </trkpt>
      <trkpt lat="49.97503" lon="2.42984">
        <ele>46.2</ele>
        <time>2013-02-17T08:56:19Z</time>
      </trkpt>
      <trkpt lat="49.97491" lon="2.42991">
        <ele>47.2</ele>
        <time>2013-02-17T08:56:30Z</time>
      </trkpt>
      <trkpt lat="49.97478" lon="2.42999">
        <ele>48.9</ele>
        <time>2013-02-17T08:56:39Z</time>
      </trkpt>
      <trkpt lat="49.97465" lon="2.43011">
        <ele>51.3</ele>
        <time>2013-02-17T08:56:47Z</time>
      </trkpt>
      <trkpt lat="49.97453" lon="2.43021">
        <ele>52</ele>
        <time>2013-02-17T08:56:58Z</time>
      </trkpt>
      <trkpt lat="49.9744" lon="2.43031">
        <ele>51.2</ele>
        <time>2013-02-17T08:57:10Z</time>
      </trkpt>
      <trkpt lat="49.97429" lon="2.43044">
        <ele>48.2</ele>
        <time>2013-02-17T08:57:23Z</time>
      </trkpt>
      <trkpt lat="49.97416" lon="2.43053">
        <ele>47.3</ele>
        <time>2013-02-17T08:57:33Z</time>
      </trkpt>
      <trkpt lat="49.97403" lon="2.43063">
        <ele>50.5</ele>
        <time>2013-02-17T08:57:44Z</time>
      </trkpt>
      <trkpt lat="49.9739" lon="2.43071">
        <ele>46.5</ele>
        <time>2013-02-17T08:57:54Z</time>
      </trkpt>
      <trkpt lat="49.97386" lon="2.43075">
        <ele>44.5</ele>
        <time>2013-02-17T08:57:59Z</time>
      </trkpt>
      <trkpt lat="49.97372" lon="2.43073">
        <ele>40.4</ele>
        <time>2013-02-17T08:58:10Z</time>
      </trkpt>
      <trkpt lat="49.97355" lon="2.43076">
        <ele>42.1</ele>
        <time>2013-02-17T08:58:21Z</time>
      </trkpt>
      <trkpt lat="49.97344" lon="2.43087">
        <ele>43.5</ele>
        <time>2013-02-17T08:58:30Z</time>
      </trkpt>
      <trkpt lat="49.97331" lon="2.43096">
        <ele>42.9</ele>
        <time>2013-02-17T08:58:43Z</time>
      </trkpt>
      <trkpt lat="49.97317" lon="2.43095">
        <ele>40.5</ele>
        <time>2013-02-17T08:58:53Z</time>
      </trkpt>
      <trkpt lat="49.97303" lon="2.43097">
        <ele>38.1</ele>
        <time>2013-02-17T08:59:08Z</time>
      </trkpt>
      <trkpt lat="49.97292" lon="2.43109">
        <ele>32.5</ele>
        <time>2013-02-17T08:59:19Z</time>
      </trkpt>
      <trkpt lat="49.97281" lon="2.43122">
        <ele>35.7</ele>
        <time>2013-02-17T08:59:31Z</time>
      </trkpt>
      <trkpt lat="49.97274" lon="2.43142">
        <ele>37.6</ele>
        <time>2013-02-17T08:59:43Z</time>
      </trkpt>
      <trkpt lat="49.97265" lon="2.43159">
        <ele>24.4</ele>
        <time>2013-02-17T08:59:56Z</time>
      </trkpt>
      <trkpt lat="49.97254" lon="2.43174">
        <ele>22</ele>
        <time>2013-02-17T09:00:07Z</time>
      </trkpt>
      <trkpt lat="49.97243" lon="2.43188">
        <ele>22.8</ele>
        <time>2013-02-17T09:00:13Z</time>
      </trkpt>
      <trkpt lat="49.97231" lon="2.43204">
        <ele>26.3</ele>
        <time>2013-02-17T09:00:20Z</time>
      </trkpt>
      <trkpt lat="49.9722" lon="2.43218">
        <ele>29.7</ele>
        <time>2013-02-17T09:00:27Z</time>
      </trkpt>
      <trkpt lat="49.97205" lon="2.43221">
        <ele>33.2</ele>
        <time>2013-02-17T09:00:34Z</time>
      </trkpt>
      <trkpt lat="49.9719" lon="2.4322">
        <ele>37.4</ele>
        <time>2013-02-17T09:00:42Z</time>
      </trkpt>
      <trkpt lat="49.97176" lon="2.4322">
        <ele>32.5</ele>
        <time>2013-02-17T09:00:52Z</time>
      </trkpt>
      <trkpt lat="49.97162" lon="2.4322">
        <ele>34.8</ele>
        <time>2013-02-17T09:01:02Z</time>
      </trkpt>
      <trkpt lat="49.97147" lon="2.43216">
        <ele>38.7</ele>
        <time>2013-02-17T09:01:12Z</time>
      </trkpt>
      <trkpt lat="49.97134" lon="2.43215">
        <ele>43.3</ele>
        <time>2013-02-17T09:01:20Z</time>
      </trkpt>
      <trkpt lat="49.97119" lon="2.43215">
        <ele>46.8</ele>
        <time>2013-02-17T09:01:28Z</time>
      </trkpt>
      <trkpt lat="49.97106" lon="2.43213">
        <ele>49.9</ele>
        <time>2013-02-17T09:01:38Z</time>
      </trkpt>
      <trkpt lat="49.97093" lon="2.43206">
        <ele>52.2</ele>
        <time>2013-02-17T09:01:48Z</time>
      </trkpt>
      <trkpt lat="49.97078" lon="2.43203">
        <ele>54.8</ele>
        <time>2013-02-17T09:01:59Z</time>
      </trkpt>
      <trkpt lat="49.97064" lon="2.43209">
        <ele>46.1</ele>
        <time>2013-02-17T09:02:06Z</time>
      </trkpt>
      <trkpt lat="49.9705" lon="2.43208">
        <ele>49.1</ele>
        <time>2013-02-17T09:02:14Z</time>
      </trkpt>
      <trkpt lat="49.97036" lon="2.43209">
        <ele>52.1</ele>
        <time>2013-02-17T09:02:22Z</time>
      </trkpt>
      <trkpt lat="49.97023" lon="2.43203">
        <ele>56.4</ele>
        <time>2013-02-17T09:02:34Z</time>
      </trkpt>
      <trkpt lat="49.97008" lon="2.43201">
        <ele>54.9</ele>
        <time>2013-02-17T09:02:44Z</time>
      </trkpt>
      <trkpt lat="49.96991" lon="2.43199">
        <ele>52.9</ele>
        <time>2013-02-17T09:02:55Z</time>
      </trkpt>
      <trkpt lat="49.96978" lon="2.43197">
        <ele>55.4</ele>
        <time>2013-02-17T09:03:04Z</time>
      </trkpt>
      <trkpt lat="49.96963" lon="2.43197">
        <ele>57.5</ele>
        <time>2013-02-17T09:03:16Z</time>
      </trkpt>
      <trkpt lat="49.96949" lon="2.43198">
        <ele>54.9</ele>
        <time>2013-02-17T09:03:27Z</time>
      </trkpt>
      <trkpt lat="49.96935" lon="2.43202">
        <ele>54.1</ele>
        <time>2013-02-17T09:03:36Z</time>
      </trkpt>
      <trkpt lat="49.96921" lon="2.43205">
        <ele>53.2</ele>
        <time>2013-02-17T09:03:46Z</time>
      </trkpt>
      <trkpt lat="49.96907" lon="2.4321">
        <ele>52.3</ele>
        <time>2013-02-17T09:03:56Z</time>
      </trkpt>
      <trkpt lat="49.96893" lon="2.43214">
        <ele>54.1</ele>
        <time>2013-02-17T09:04:05Z</time>
      </trkpt>
      <trkpt lat="49.96878" lon="2.43217">
        <ele>59.8</ele>
        <time>2013-02-17T09:04:15Z</time>
      </trkpt>
      <trkpt lat="49.96862" lon="2.43215">
        <ele>54.9</ele>
        <time>2013-02-17T09:04:26Z</time>
      </trkpt>
      <trkpt lat="49.96849" lon="2.43218">
        <ele>58.9</ele>
        <time>2013-02-17T09:04:36Z</time>
      </trkpt>
      <trkpt lat="49.96834" lon="2.43219">
        <ele>58.2</ele>
        <time>2013-02-17T09:04:46Z</time>
      </trkpt>
      <trkpt lat="49.9682" lon="2.43218">
        <ele>50.9</ele>
        <time>2013-02-17T09:04:56Z</time>
      </trkpt>
      <trkpt lat="49.96806" lon="2.43221">
        <ele>57.3</ele>
        <time>2013-02-17T09:05:06Z</time>
      </trkpt>
      <trkpt lat="49.96791" lon="2.43227">
        <ele>51.4</ele>
        <time>2013-02-17T09:05:18Z</time>
      </trkpt>
      <trkpt lat="49.96776" lon="2.43231">
        <ele>49.3</ele>
        <time>2013-02-17T09:05:29Z</time>
      </trkpt>
      <trkpt lat="49.96762" lon="2.43236">
        <ele>46.7</ele>
        <time>2013-02-17T09:05:38Z</time>
      </trkpt>
      <trkpt lat="49.96748" lon="2.43244">
        <ele>46.4</ele>
        <time>2013-02-17T09:05:50Z</time>
      </trkpt>
      <trkpt lat="49.96736" lon="2.43258">
        <ele>46.9</ele>
        <time>2013-02-17T09:06:07Z</time>
      </trkpt>
      <trkpt lat="49.96726" lon="2.43275">
        <ele>46.3</ele>
        <time>2013-02-17T09:06:19Z</time>
      </trkpt>
      <trkpt lat="49.96715" lon="2.43291">
        <ele>45</ele>
        <time>2013-02-17T09:06:30Z</time>
      </trkpt>
      <trkpt lat="49.96703" lon="2.43301">
        <ele>41.6</ele>
        <time>2013-02-17T09:06:41Z</time>
      </trkpt>
      <trkpt lat="49.9669" lon="2.43313">
        <ele>40</ele>
        <time>2013-02-17T09:06:50Z</time>
      </trkpt>
      <trkpt lat="49.96677" lon="2.43319">
        <ele>44.6</ele>
        <time>2013-02-17T09:07:01Z</time>
      </trkpt>
      <trkpt lat="49.96663" lon="2.43326">
        <ele>44.3</ele>
        <time>2013-02-17T09:07:12Z</time>
      </trkpt>
      <trkpt lat="49.96649" lon="2.43336">
        <ele>44.5</ele>
        <time>2013-02-17T09:07:25Z</time>
      </trkpt>
      <trkpt lat="49.96638" lon="2.43349">
        <ele>43.7</ele>
        <time>2013-02-17T09:07:33Z</time>
      </trkpt>
      <trkpt lat="49.96627" lon="2.43364">
        <ele>42.6</ele>
        <time>2013-02-17T09:07:43Z</time>
      </trkpt>
      <trkpt lat="49.96617" lon="2.43382">
        <ele>41.6</ele>
        <time>2013-02-17T09:07:53Z</time>
      </trkpt>
      <trkpt lat="49.96609" lon="2.434">
        <ele>43</ele>
        <time>2013-02-17T09:08:03Z</time>
      </trkpt>
      <trkpt lat="49.96605" lon="2.43421">
        <ele>46</ele>
        <time>2013-02-17T09:08:13Z</time>
      </trkpt>
      <trkpt lat="49.96601" lon="2.43442">
        <ele>48.5</ele>
        <time>2013-02-17T09:08:22Z</time>
      </trkpt>
      <trkpt lat="49.96601" lon="2.43465">
        <ele>44.6</ele>
        <time>2013-02-17T09:08:33Z</time>
      </trkpt>
      <trkpt lat="49.96598" lon="2.43488">
        <ele>49.6</ele>
        <time>2013-02-17T09:08:44Z</time>
      </trkpt>
      <trkpt lat="49.96593" lon="2.43508">
        <ele>51.8</ele>
        <time>2013-02-17T09:08:52Z</time>
      </trkpt>
      <trkpt lat="49.96594" lon="2.43529">
        <ele>46</ele>
        <time>2013-02-17T09:09:03Z</time>
      </trkpt>
      <trkpt lat="49.96594" lon="2.4355">
        <ele>49.1</ele>
        <time>2013-02-17T09:09:13Z</time>
      </trkpt>
      <trkpt lat="49.96593" lon="2.43573">
        <ele>51</ele>
        <time>2013-02-17T09:09:23Z</time>
      </trkpt>
      <trkpt lat="49.96594" lon="2.43595">
        <ele>46.4</ele>
        <time>2013-02-17T09:09:34Z</time>
      </trkpt>
      <trkpt lat="49.96595" lon="2.43618">
        <ele>51.1</ele>
        <time>2013-02-17T09:09:44Z</time>
      </trkpt>
      <trkpt lat="49.96596" lon="2.4364">
        <ele>53.5</ele>
        <time>2013-02-17T09:09:55Z</time>
      </trkpt>
      <trkpt lat="49.96593" lon="2.43661">
        <ele>52.3</ele>
        <time>2013-02-17T09:10:04Z</time>
      </trkpt>
      <trkpt lat="49.96591" lon="2.43677">
        <ele>49</ele>
        <time>2013-02-17T09:10:17Z</time>
      </trkpt>
      <trkpt lat="49.96577" lon="2.4368">
        <ele>49.6</ele>
        <time>2013-02-17T09:10:27Z</time>
      </trkpt>
      <trkpt lat="49.96562" lon="2.43681">
        <ele>44.8</ele>
        <time>2013-02-17T09:10:40Z</time>
      </trkpt>
      <trkpt lat="49.96547" lon="2.4368">
        <ele>48.5</ele>
        <time>2013-02-17T09:10:51Z</time>
      </trkpt>
      <trkpt lat="49.96531" lon="2.43678">
        <ele>52.1</ele>
        <time>2013-02-17T09:11:03Z</time>
      </trkpt>
      <trkpt lat="49.96517" lon="2.43682">
        <ele>55.1</ele>
        <time>2013-02-17T09:11:15Z</time>
      </trkpt>
      <trkpt lat="49.96503" lon="2.43684">
        <ele>53.7</ele>
        <time>2013-02-17T09:11:25Z</time>
      </trkpt>
      <trkpt lat="49.96488" lon="2.43705">
        <ele>54</ele>
        <time>2013-02-17T09:11:43Z</time>
      </trkpt>
      <trkpt lat="49.96488" lon="2.43705">
        <ele>54</ele>
        <time>2013-02-17T09:14:50Z</time>
      </trkpt>
      <trkpt lat="49.96486" lon="2.43723">
        <ele>51</ele>
        <time>2013-02-17T09:14:53Z</time>
      </trkpt>
      <trkpt lat="49.96484" lon="2.43745">
        <ele>48.2</ele>
        <time>2013-02-17T09:15:03Z</time>
      </trkpt>
      <trkpt lat="49.96487" lon="2.43771">
        <ele>56.1</ele>
        <time>2013-02-17T09:15:13Z</time>
      </trkpt>
      <trkpt lat="49.96489" lon="2.43795">
        <ele>57.3</ele>
        <time>2013-02-17T09:15:26Z</time>
      </trkpt>
      <trkpt lat="49.96491" lon="2.43816">
        <ele>54.5</ele>
        <time>2013-02-17T09:15:38Z</time>
      </trkpt>
      <trkpt lat="49.96489" lon="2.43837">
        <ele>48.8</ele>
        <time>2013-02-17T09:15:50Z</time>
      </trkpt>
      <trkpt lat="49.96488" lon="2.4386">
        <ele>47</ele>
        <time>2013-02-17T09:16:01Z</time>
      </trkpt>
      <trkpt lat="49.96492" lon="2.43881">
        <ele>47.4</ele>
        <time>2013-02-17T09:16:10Z</time>
      </trkpt>
      <trkpt lat="49.96492" lon="2.43905">
        <ele>50.3</ele>
        <time>2013-02-17T09:16:22Z</time>
      </trkpt>
      <trkpt lat="49.96494" lon="2.43927">
        <ele>45.9</ele>
        <time>2013-02-17T09:16:31Z</time>
      </trkpt>
      <trkpt lat="49.96497" lon="2.43951">
        <ele>48.5</ele>
        <time>2013-02-17T09:16:43Z</time>
      </trkpt>
      <trkpt lat="49.96503" lon="2.43972">
        <ele>45</ele>
        <time>2013-02-17T09:16:52Z</time>
      </trkpt>
      <trkpt lat="49.96503" lon="2.43994">
        <ele>46.3</ele>
        <time>2013-02-17T09:17:02Z</time>
      </trkpt>
      <trkpt lat="49.96508" lon="2.44014">
        <ele>41.5</ele>
        <time>2013-02-17T09:17:14Z</time>
      </trkpt>
      <trkpt lat="49.96508" lon="2.44038">
        <ele>45.3</ele>
        <time>2013-02-17T09:17:24Z</time>
      </trkpt>
      <trkpt lat="49.9651" lon="2.44061">
        <ele>46.3</ele>
        <time>2013-02-17T09:17:35Z</time>
      </trkpt>
      <trkpt lat="49.9651" lon="2.44084">
        <ele>42.9</ele>
        <time>2013-02-17T09:17:46Z</time>
      </trkpt>
      <trkpt lat="49.96513" lon="2.44107">
        <ele>41.8</ele>
        <time>2013-02-17T09:17:57Z</time>
      </trkpt>
      <trkpt lat="49.96516" lon="2.44127">
        <ele>41.5</ele>
        <time>2013-02-17T09:18:08Z</time>
      </trkpt>
      <trkpt lat="49.96519" lon="2.4415">
        <ele>40.8</ele>
        <time>2013-02-17T09:18:18Z</time>
      </trkpt>
      <trkpt lat="49.96521" lon="2.44171">
        <ele>41.1</ele>
        <time>2013-02-17T09:18:27Z</time>
      </trkpt>
      <trkpt lat="49.96524" lon="2.44192">
        <ele>39.6</ele>
        <time>2013-02-17T09:18:36Z</time>
      </trkpt>
      <trkpt lat="49.96533" lon="2.4421">
        <ele>37.3</ele>
        <time>2013-02-17T09:18:50Z</time>
      </trkpt>
      <trkpt lat="49.96547" lon="2.44211">
        <ele>37.8</ele>
        <time>2013-02-17T09:18:59Z</time>
      </trkpt>
      <trkpt lat="49.96561" lon="2.44213">
        <ele>41.9</ele>
        <time>2013-02-17T09:19:11Z</time>
      </trkpt>
      <trkpt lat="49.96584" lon="2.44215">
        <ele>32.1</ele>
        <time>2013-02-17T09:19:32Z</time>
      </trkpt>
      <trkpt lat="49.96584" lon="2.44215">
        <ele>32.1</ele>
        <time>2013-02-17T09:20:11Z</time>
      </trkpt>
      <trkpt lat="49.96602" lon="2.44224">
        <ele>24.7</ele>
        <time>2013-02-17T09:20:18Z</time>
      </trkpt>
      <trkpt lat="49.96615" lon="2.4423">
        <ele>26.2</ele>
        <time>2013-02-17T09:20:24Z</time>
      </trkpt>
      <trkpt lat="49.9663" lon="2.44233">
        <ele>28.3</ele>
        <time>2013-02-17T09:20:33Z</time>
      </trkpt>
      <trkpt lat="49.96647" lon="2.44232">
        <ele>29.5</ele>
        <time>2013-02-17T09:20:41Z</time>
      </trkpt>
      <trkpt lat="49.96662" lon="2.44231">
        <ele>30.6</ele>
        <time>2013-02-17T09:20:48Z</time>
      </trkpt>
      <trkpt lat="49.96677" lon="2.44236">
        <ele>31.9</ele>
        <time>2013-02-17T09:20:54Z</time>
      </trkpt>
      <trkpt lat="49.96692" lon="2.44237">
        <ele>33.3</ele>
        <time>2013-02-17T09:21:01Z</time>
      </trkpt>
      <trkpt lat="49.96707" lon="2.44236">
        <ele>36.5</ele>
        <time>2013-02-17T09:21:11Z</time>
      </trkpt>
      <trkpt lat="49.96721" lon="2.44238">
        <ele>39.3</ele>
        <time>2013-02-17T09:21:19Z</time>
      </trkpt>
      <trkpt lat="49.96734" lon="2.44229">
        <ele>39.7</ele>
        <time>2013-02-17T09:21:29Z</time>
      </trkpt>
      <trkpt lat="49.96746" lon="2.44216">
        <ele>36</ele>
        <time>2013-02-17T09:21:39Z</time>
      </trkpt>
      <trkpt lat="49.96759" lon="2.44203">
        <ele>38.8</ele>
        <time>2013-02-17T09:21:50Z</time>
      </trkpt>
      <trkpt lat="49.96771" lon="2.44192">
        <ele>40.6</ele>
        <time>2013-02-17T09:22:00Z</time>
      </trkpt>
      <trkpt lat="49.96786" lon="2.44186">
        <ele>41.4</ele>
        <time>2013-02-17T09:22:12Z</time>
      </trkpt>
      <trkpt lat="49.968" lon="2.44178">
        <ele>40.6</ele>
        <time>2013-02-17T09:22:23Z</time>
      </trkpt>
      <trkpt lat="49.96813" lon="2.4417">
        <ele>39.7</ele>
        <time>2013-02-17T09:22:33Z</time>
      </trkpt>
      <trkpt lat="49.96826" lon="2.4416">
        <ele>38.6</ele>
        <time>2013-02-17T09:22:46Z</time>
      </trkpt>
      <trkpt lat="49.96839" lon="2.44147">
        <ele>42</ele>
        <time>2013-02-17T09:23:00Z</time>
      </trkpt>
      <trkpt lat="49.96853" lon="2.44146">
        <ele>39.5</ele>
        <time>2013-02-17T09:23:08Z</time>
      </trkpt>
      <trkpt lat="49.96867" lon="2.44141">
        <ele>42.1</ele>
        <time>2013-02-17T09:23:19Z</time>
      </trkpt>
      <trkpt lat="49.96881" lon="2.4414">
        <ele>38.4</ele>
        <time>2013-02-17T09:23:30Z</time>
      </trkpt>
      <trkpt lat="49.96895" lon="2.44142">
        <ele>38.7</ele>
        <time>2013-02-17T09:23:40Z</time>
      </trkpt>
      <trkpt lat="49.96909" lon="2.44139">
        <ele>34.8</ele>
        <time>2013-02-17T09:23:53Z</time>
      </trkpt>
      <trkpt lat="49.96923" lon="2.44142">
        <ele>32.5</ele>
        <time>2013-02-17T09:24:04Z</time>
      </trkpt>
      <trkpt lat="49.96938" lon="2.44148">
        <ele>31.3</ele>
        <time>2013-02-17T09:24:12Z</time>
      </trkpt>
      <trkpt lat="49.96953" lon="2.44153">
        <ele>33.3</ele>
        <time>2013-02-17T09:24:19Z</time>
      </trkpt>
      <trkpt lat="49.96968" lon="2.44162">
        <ele>32.8</ele>
        <time>2013-02-17T09:24:33Z</time>
      </trkpt>
      <trkpt lat="49.96981" lon="2.44171">
        <ele>29.6</ele>
        <time>2013-02-17T09:24:48Z</time>
      </trkpt>
      <trkpt lat="49.96991" lon="2.44185">
        <ele>31.4</ele>
        <time>2013-02-17T09:24:59Z</time>
      </trkpt>
      <trkpt lat="49.97003" lon="2.44198">
        <ele>31.1</ele>
        <time>2013-02-17T09:25:09Z</time>
      </trkpt>
      <trkpt lat="49.97015" lon="2.44212">
        <ele>29.2</ele>
        <time>2013-02-17T09:25:19Z</time>
      </trkpt>
      <trkpt lat="49.97028" lon="2.44222">
        <ele>27.6</ele>
        <time>2013-02-17T09:25:27Z</time>
      </trkpt>
      <trkpt lat="49.97042" lon="2.44234">
        <ele>30.5</ele>
        <time>2013-02-17T09:25:36Z</time>
      </trkpt>
      <trkpt lat="49.97055" lon="2.44244">
        <ele>34</ele>
        <time>2013-02-17T09:25:46Z</time>
      </trkpt>
      <trkpt lat="49.97068" lon="2.44253">
        <ele>35.9</ele>
        <time>2013-02-17T09:25:54Z</time>
      </trkpt>
      <trkpt lat="49.97086" lon="2.44256">
        <ele>39.1</ele>
        <time>2013-02-17T09:26:14Z</time>
      </trkpt>
      <trkpt lat="49.97094" lon="2.44258">
        <ele>38.1</ele>
        <time>2013-02-17T09:26:20Z</time>
      </trkpt>
      <trkpt lat="49.97101" lon="2.44253">
        <ele>36.8</ele>
        <time>2013-02-17T09:26:27Z</time>
      </trkpt>
      <trkpt lat="49.97115" lon="2.44252">
        <ele>37.4</ele>
        <time>2013-02-17T09:26:43Z</time>
      </trkpt>
      <trkpt lat="49.97129" lon="2.44244">
        <ele>40.2</ele>
        <time>2013-02-17T09:26:56Z</time>
      </trkpt>
      <trkpt lat="49.97143" lon="2.44237">
        <ele>38.8</ele>
        <time>2013-02-17T09:27:02Z</time>
      </trkpt>
      <trkpt lat="49.97158" lon="2.44231">
        <ele>42.3</ele>
        <time>2013-02-17T09:27:08Z</time>
      </trkpt>
      <trkpt lat="49.97173" lon="2.44225">
        <ele>46.8</ele>
        <time>2013-02-17T09:27:16Z</time>
      </trkpt>
      <trkpt lat="49.9718" lon="2.44219">
        <ele>49.7</ele>
        <time>2013-02-17T09:27:23Z</time>
      </trkpt>
      <trkpt lat="49.97193" lon="2.44221">
        <ele>53</ele>
        <time>2013-02-17T09:27:31Z</time>
      </trkpt>
      <trkpt lat="49.97206" lon="2.4423">
        <ele>54.4</ele>
        <time>2013-02-17T09:27:46Z</time>
      </trkpt>
      <trkpt lat="49.97219" lon="2.44238">
        <ele>47.3</ele>
        <time>2013-02-17T09:27:58Z</time>
      </trkpt>
      <trkpt lat="49.97233" lon="2.4424">
        <ele>45.4</ele>
        <time>2013-02-17T09:28:07Z</time>
      </trkpt>
      <trkpt lat="49.97247" lon="2.44241">
        <ele>47</ele>
        <time>2013-02-17T09:28:15Z</time>
      </trkpt>
      <trkpt lat="49.97262" lon="2.44241">
        <ele>48.1</ele>
        <time>2013-02-17T09:28:23Z</time>
      </trkpt>
      <trkpt lat="49.97277" lon="2.44243">
        <ele>48.9</ele>
        <time>2013-02-17T09:28:33Z</time>
      </trkpt>
      <trkpt lat="49.97291" lon="2.44242">
        <ele>46.8</ele>
        <time>2013-02-17T09:28:43Z</time>
      </trkpt>
      <trkpt lat="49.97305" lon="2.44237">
        <ele>50.3</ele>
        <time>2013-02-17T09:28:55Z</time>
      </trkpt>
      <trkpt lat="49.9732" lon="2.4423">
        <ele>46.9</ele>
        <time>2013-02-17T09:29:05Z</time>
      </trkpt>
      <trkpt lat="49.97334" lon="2.44227">
        <ele>45.5</ele>
        <time>2013-02-17T09:29:14Z</time>
      </trkpt>
      <trkpt lat="49.97348" lon="2.44218">
        <ele>42.7</ele>
        <time>2013-02-17T09:29:25Z</time>
      </trkpt>
      <trkpt lat="49.97361" lon="2.44215">
        <ele>41.3</ele>
        <time>2013-02-17T09:29:34Z</time>
      </trkpt>
      <trkpt lat="49.97375" lon="2.44215">
        <ele>39.9</ele>
        <time>2013-02-17T09:29:43Z</time>
      </trkpt>
      <trkpt lat="49.97388" lon="2.44208">
        <ele>38.5</ele>
        <time>2013-02-17T09:29:54Z</time>
      </trkpt>
      <trkpt lat="49.97401" lon="2.44201">
        <ele>38</ele>
        <time>2013-02-17T09:30:07Z</time>
      </trkpt>
      <trkpt lat="49.97415" lon="2.44198">
        <ele>37.5</ele>
        <time>2013-02-17T09:30:18Z</time>
      </trkpt>
      <trkpt lat="49.9743" lon="2.44199">
        <ele>36.8</ele>
        <time>2013-02-17T09:30:27Z</time>
      </trkpt>
      <trkpt lat="49.97444" lon="2.44202">
        <ele>37.9</ele>
        <time>2013-02-17T09:30:37Z</time>
      </trkpt>
      <trkpt lat="49.97457" lon="2.44204">
        <ele>35.5</ele>
        <time>2013-02-17T09:30:53Z</time>
      </trkpt>
      <trkpt lat="49.97471" lon="2.44209">
        <ele>33.3</ele>
        <time>2013-02-17T09:31:01Z</time>
      </trkpt>
      <trkpt lat="49.97486" lon="2.44218">
        <ele>35.5</ele>
        <time>2013-02-17T09:31:13Z</time>
      </trkpt>
      <trkpt lat="49.975" lon="2.44224">
        <ele>37.2</ele>
        <time>2013-02-17T09:31:25Z</time>
      </trkpt>
      <trkpt lat="49.97513" lon="2.44228">
        <ele>38.2</ele>
        <time>2013-02-17T09:31:32Z</time>
      </trkpt>
      <trkpt lat="49.97527" lon="2.44236">
        <ele>40.6</ele>
        <time>2013-02-17T09:31:41Z</time>
      </trkpt>
      <trkpt lat="49.97541" lon="2.44241">
        <ele>43.2</ele>
        <time>2013-02-17T09:31:48Z</time>
      </trkpt>
      <trkpt lat="49.97556" lon="2.44246">
        <ele>42</ele>
        <time>2013-02-17T09:31:58Z</time>
      </trkpt>
      <trkpt lat="49.9757" lon="2.4425">
        <ele>39.9</ele>
        <time>2013-02-17T09:32:09Z</time>
      </trkpt>
      <trkpt lat="49.97584" lon="2.44253">
        <ele>40</ele>
        <time>2013-02-17T09:32:22Z</time>
      </trkpt>
      <trkpt lat="49.97599" lon="2.44253">
        <ele>39.2</ele>
        <time>2013-02-17T09:32:37Z</time>
      </trkpt>
      <trkpt lat="49.97617" lon="2.44251">
        <ele>34.7</ele>
        <time>2013-02-17T09:32:55Z</time>
      </trkpt>
      <trkpt lat="49.97635" lon="2.44249">
        <ele>23.5</ele>
        <time>2013-02-17T09:33:13Z</time>
      </trkpt>
      <trkpt lat="49.9765" lon="2.44247">
        <ele>24.7</ele>
        <time>2013-02-17T09:33:22Z</time>
      </trkpt>
      <trkpt lat="49.97662" lon="2.44236">
        <ele>28.2</ele>
        <time>2013-02-17T09:33:30Z</time>
      </trkpt>
      <trkpt lat="49.97675" lon="2.44226">
        <ele>30.8</ele>
        <time>2013-02-17T09:33:36Z</time>
      </trkpt>
      <trkpt lat="49.97688" lon="2.44214">
        <ele>34.3</ele>
        <time>2013-02-17T09:33:44Z</time>
      </trkpt>
      <trkpt lat="49.97697" lon="2.44198">
        <ele>38.7</ele>
        <time>2013-02-17T09:33:54Z</time>
      </trkpt>
      <trkpt lat="49.97704" lon="2.4418">
        <ele>40.8</ele>
        <time>2013-02-17T09:34:03Z</time>
      </trkpt>
      <trkpt lat="49.97714" lon="2.44162">
        <ele>39.8</ele>
        <time>2013-02-17T09:34:14Z</time>
      </trkpt>
      <trkpt lat="49.97724" lon="2.44146">
        <ele>37.4</ele>
        <time>2013-02-17T09:34:26Z</time>
      </trkpt>
      <trkpt lat="49.97735" lon="2.44131">
        <ele>41.6</ele>
        <time>2013-02-17T09:34:36Z</time>
      </trkpt>
      <trkpt lat="49.97746" lon="2.44115">
        <ele>37.2</ele>
        <time>2013-02-17T09:34:47Z</time>
      </trkpt>
      <trkpt lat="49.97756" lon="2.44099">
        <ele>40.6</ele>
        <time>2013-02-17T09:34:59Z</time>
      </trkpt>
      <trkpt lat="49.97767" lon="2.44084">
        <ele>34.5</ele>
        <time>2013-02-17T09:35:10Z</time>
      </trkpt>
      <trkpt lat="49.9778" lon="2.44069">
        <ele>37</ele>
        <time>2013-02-17T09:35:21Z</time>
      </trkpt>
      <trkpt lat="49.9779" lon="2.44054">
        <ele>28.4</ele>
        <time>2013-02-17T09:35:32Z</time>
      </trkpt>
      <trkpt lat="49.97799" lon="2.44036">
        <ele>36</ele>
        <time>2013-02-17T09:35:43Z</time>
      </trkpt>
      <trkpt lat="49.97803" lon="2.44016">
        <ele>38.8</ele>
        <time>2013-02-17T09:35:52Z</time>
      </trkpt>
      <trkpt lat="49.97809" lon="2.43996">
        <ele>41.8</ele>
        <time>2013-02-17T09:36:02Z</time>
      </trkpt>
      <trkpt lat="49.97816" lon="2.43977">
        <ele>43.2</ele>
        <time>2013-02-17T09:36:13Z</time>
      </trkpt>
      <trkpt lat="49.97815" lon="2.43948">
        <ele>39</ele>
        <time>2013-02-17T09:36:32Z</time>
      </trkpt>
      <trkpt lat="49.97815" lon="2.43948">
        <ele>39</ele>
        <time>2013-02-17T09:53:32Z</time>
      </trkpt>
      <trkpt lat="49.97816" lon="2.4394">
        <ele>36.3</ele>
        <time>2013-02-17T09:53:35Z</time>
      </trkpt>
      <trkpt lat="49.97816" lon="2.43963">
        <ele>36.1</ele>
        <time>2013-02-17T09:53:45Z</time>
      </trkpt>
      <trkpt lat="49.97818" lon="2.43975">
        <ele>34.9</ele>
        <time>2013-02-17T09:53:53Z</time>
      </trkpt>
      <trkpt lat="49.97831" lon="2.43979">
        <ele>36.3</ele>
        <time>2013-02-17T09:54:07Z</time>
      </trkpt>
      <trkpt lat="49.97845" lon="2.43984">
        <ele>40</ele>
        <time>2013-02-17T09:54:18Z</time>
      </trkpt>
      <trkpt lat="49.9786" lon="2.43989">
        <ele>43.4</ele>
        <time>2013-02-17T09:54:28Z</time>
      </trkpt>
      <trkpt lat="49.97875" lon="2.43995">
        <ele>40.6</ele>
        <time>2013-02-17T09:54:39Z</time>
      </trkpt>
      <trkpt lat="49.97888" lon="2.44004">
        <ele>50.5</ele>
        <time>2013-02-17T09:54:50Z</time>
      </trkpt>
      <trkpt lat="49.97899" lon="2.44018">
        <ele>44</ele>
        <time>2013-02-17T09:55:04Z</time>
      </trkpt>
      <trkpt lat="49.97915" lon="2.44014">
        <ele>43.5</ele>
        <time>2013-02-17T09:55:13Z</time>
      </trkpt>
      <trkpt lat="49.97916" lon="2.43992">
        <ele>39.7</ele>
        <time>2013-02-17T09:55:24Z</time>
      </trkpt>
      <trkpt lat="49.97914" lon="2.43971">
        <ele>39.8</ele>
        <time>2013-02-17T09:55:33Z</time>
      </trkpt>
      <trkpt lat="49.97913" lon="2.4395">
        <ele>43.9</ele>
        <time>2013-02-17T09:55:43Z</time>
      </trkpt>
      <trkpt lat="49.97909" lon="2.43929">
        <ele>47.8</ele>
        <time>2013-02-17T09:55:54Z</time>
      </trkpt>
      <trkpt lat="49.97906" lon="2.43908">
        <ele>44</ele>
        <time>2013-02-17T09:56:03Z</time>
      </trkpt>
      <trkpt lat="49.97903" lon="2.43883">
        <ele>44.9</ele>
        <time>2013-02-17T09:56:15Z</time>
      </trkpt>
      <trkpt lat="49.97903" lon="2.43862">
        <ele>45.8</ele>
        <time>2013-02-17T09:56:27Z</time>
      </trkpt>
      <trkpt lat="49.97905" lon="2.43839">
        <ele>46.2</ele>
        <time>2013-02-17T09:56:45Z</time>
      </trkpt>
      <trkpt lat="49.97907" lon="2.43814">
        <ele>48.3</ele>
        <time>2013-02-17T09:56:53Z</time>
      </trkpt>
      <trkpt lat="49.97907" lon="2.43792">
        <ele>51.2</ele>
        <time>2013-02-17T09:57:04Z</time>
      </trkpt>
      <trkpt lat="49.97903" lon="2.43772">
        <ele>52.3</ele>
        <time>2013-02-17T09:57:14Z</time>
      </trkpt>
      <trkpt lat="49.97906" lon="2.43751">
        <ele>53.4</ele>
        <time>2013-02-17T09:57:24Z</time>
      </trkpt>
      <trkpt lat="49.97909" lon="2.43729">
        <ele>54.3</ele>
        <time>2013-02-17T09:57:32Z</time>
      </trkpt>
      <trkpt lat="49.97912" lon="2.43707">
        <ele>48.6</ele>
        <time>2013-02-17T09:57:44Z</time>
      </trkpt>
      <trkpt lat="49.9792" lon="2.43688">
        <ele>42.1</ele>
        <time>2013-02-17T09:57:56Z</time>
      </trkpt>
      <trkpt lat="49.97926" lon="2.43668">
        <ele>45</ele>
        <time>2013-02-17T09:58:06Z</time>
      </trkpt>
      <trkpt lat="49.97934" lon="2.43651">
        <ele>33.5</ele>
        <time>2013-02-17T09:58:16Z</time>
      </trkpt>
      <trkpt lat="49.97942" lon="2.43633">
        <ele>39.3</ele>
        <time>2013-02-17T09:58:27Z</time>
      </trkpt>
      <trkpt lat="49.97951" lon="2.43617">
        <ele>37.1</ele>
        <time>2013-02-17T09:58:38Z</time>
      </trkpt>
      <trkpt lat="49.97964" lon="2.43602">
        <ele>41.2</ele>
        <time>2013-02-17T09:58:50Z</time>
      </trkpt>
      <trkpt lat="49.9798" lon="2.436">
        <ele>45.5</ele>
        <time>2013-02-17T09:59:01Z</time>
      </trkpt>
      <trkpt lat="49.97993" lon="2.43595">
        <ele>43.8</ele>
        <time>2013-02-17T09:59:11Z</time>
      </trkpt>
      <trkpt lat="49.98006" lon="2.43585">
        <ele>45.8</ele>
        <time>2013-02-17T09:59:22Z</time>
      </trkpt>
      <trkpt lat="49.98013" lon="2.43567">
        <ele>46.4</ele>
        <time>2013-02-17T09:59:33Z</time>
      </trkpt>
      <trkpt lat="49.98018" lon="2.43547">
        <ele>44</ele>
        <time>2013-02-17T09:59:44Z</time>
      </trkpt>
      <trkpt lat="49.98019" lon="2.4352">
        <ele>39.9</ele>
        <time>2013-02-17T09:59:55Z</time>
      </trkpt>
      <trkpt lat="49.98018" lon="2.43497">
        <ele>40.1</ele>
        <time>2013-02-17T10:00:08Z</time>
      </trkpt>
      <trkpt lat="49.98018" lon="2.43475">
        <ele>40.7</ele>
        <time>2013-02-17T10:00:18Z</time>
      </trkpt>
      <trkpt lat="49.98016" lon="2.43453">
        <ele>40.3</ele>
        <time>2013-02-17T10:00:29Z</time>
      </trkpt>
      <trkpt lat="49.98015" lon="2.43431">
        <ele>40.2</ele>
        <time>2013-02-17T10:00:38Z</time>
      </trkpt>
      <trkpt lat="49.98014" lon="2.43407">
        <ele>37.2</ele>
        <time>2013-02-17T10:00:50Z</time>
      </trkpt>
      <trkpt lat="49.98012" lon="2.43386">
        <ele>43.3</ele>
        <time>2013-02-17T10:01:01Z</time>
      </trkpt>
      <trkpt lat="49.98012" lon="2.43364">
        <ele>45.1</ele>
        <time>2013-02-17T10:01:12Z</time>
      </trkpt>
      <trkpt lat="49.98011" lon="2.43341">
        <ele>47</ele>
        <time>2013-02-17T10:01:24Z</time>
      </trkpt>
      <trkpt lat="49.98001" lon="2.43325">
        <ele>48.4</ele>
        <time>2013-02-17T10:01:35Z</time>
      </trkpt>
      <trkpt lat="49.9799" lon="2.4331">
        <ele>49.3</ele>
        <time>2013-02-17T10:01:48Z</time>
      </trkpt>
      <trkpt lat="49.97979" lon="2.43296">
        <ele>46.4</ele>
        <time>2013-02-17T10:01:59Z</time>
      </trkpt>
      <trkpt lat="49.97969" lon="2.43281">
        <ele>47.7</ele>
        <time>2013-02-17T10:02:13Z</time>
      </trkpt>
      <trkpt lat="49.97956" lon="2.43267">
        <ele>49.6</ele>
        <time>2013-02-17T10:02:25Z</time>
      </trkpt>
      <trkpt lat="49.97942" lon="2.43255">
        <ele>50.9</ele>
        <time>2013-02-17T10:02:38Z</time>
      </trkpt>
      <trkpt lat="49.9793" lon="2.43241">
        <ele>55.1</ele>
        <time>2013-02-17T10:02:51Z</time>
      </trkpt>
      <trkpt lat="49.97918" lon="2.4323">
        <ele>50.3</ele>
        <time>2013-02-17T10:03:03Z</time>
      </trkpt>
      <trkpt lat="49.97906" lon="2.43216">
        <ele>55.2</ele>
        <time>2013-02-17T10:03:15Z</time>
      </trkpt>
      <trkpt lat="49.97895" lon="2.43203">
        <ele>56.7</ele>
        <time>2013-02-17T10:03:28Z</time>
      </trkpt>
      <trkpt lat="49.97881" lon="2.43189">
        <ele>58.2</ele>
        <time>2013-02-17T10:03:41Z</time>
      </trkpt>
      <trkpt lat="49.97868" lon="2.43175">
        <ele>55.4</ele>
        <time>2013-02-17T10:03:54Z</time>
      </trkpt>
      <trkpt lat="49.97857" lon="2.43162">
        <ele>58.5</ele>
        <time>2013-02-17T10:04:06Z</time>
      </trkpt>
      <trkpt lat="49.97844" lon="2.43151">
        <ele>59.3</ele>
        <time>2013-02-17T10:04:17Z</time>
      </trkpt>
      <trkpt lat="49.97832" lon="2.4314">
        <ele>60.6</ele>
        <time>2013-02-17T10:04:30Z</time>
      </trkpt>
      <trkpt lat="49.9782" lon="2.43128">
        <ele>60.1</ele>
        <time>2013-02-17T10:04:42Z</time>
      </trkpt>
      <trkpt lat="49.97808" lon="2.43113">
        <ele>61.9</ele>
        <time>2013-02-17T10:04:55Z</time>
      </trkpt>
      <trkpt lat="49.97793" lon="2.43101">
        <ele>66.2</ele>
        <time>2013-02-17T10:05:06Z</time>
      </trkpt>
      <trkpt lat="49.97779" lon="2.43093">
        <ele>64.3</ele>
        <time>2013-02-17T10:05:20Z</time>
      </trkpt>
      <trkpt lat="49.97765" lon="2.43087">
        <ele>61</ele>
        <time>2013-02-17T10:05:33Z</time>
      </trkpt>
      <trkpt lat="49.97751" lon="2.43084">
        <ele>64.4</ele>
        <time>2013-02-17T10:05:42Z</time>
      </trkpt>
      <trkpt lat="49.97737" lon="2.43081">
        <ele>64.4</ele>
        <time>2013-02-17T10:05:57Z</time>
      </trkpt>
      <trkpt lat="49.97725" lon="2.43071">
        <ele>67</ele>
        <time>2013-02-17T10:06:11Z</time>
      </trkpt>
      <trkpt lat="49.97709" lon="2.43061">
        <ele>68.3</ele>
        <time>2013-02-17T10:06:24Z</time>
      </trkpt>
      <trkpt lat="49.97696" lon="2.43055">
        <ele>66.7</ele>
        <time>2013-02-17T10:06:39Z</time>
      </trkpt>
      <trkpt lat="49.97683" lon="2.43049">
        <ele>70.1</ele>
        <time>2013-02-17T10:06:51Z</time>
      </trkpt>
      <trkpt lat="49.9767" lon="2.43038">
        <ele>67.8</ele>
        <time>2013-02-17T10:07:02Z</time>
      </trkpt>
      <trkpt lat="49.97658" lon="2.43025">
        <ele>68.9</ele>
        <time>2013-02-17T10:07:13Z</time>
      </trkpt>
      <trkpt lat="49.97645" lon="2.43018">
        <ele>67.1</ele>
        <time>2013-02-17T10:07:23Z</time>
      </trkpt>
      <trkpt lat="49.97632" lon="2.4301">
        <ele>65.1</ele>
        <time>2013-02-17T10:07:34Z</time>
      </trkpt>
      <trkpt lat="49.9762" lon="2.42999">
        <ele>63.1</ele>
        <time>2013-02-17T10:07:45Z</time>
      </trkpt>
      <trkpt lat="49.97608" lon="2.4299">
        <ele>61.6</ele>
        <time>2013-02-17T10:07:58Z</time>
      </trkpt>
      <trkpt lat="49.97595" lon="2.42984">
        <ele>61.9</ele>
        <time>2013-02-17T10:08:09Z</time>
      </trkpt>
      <trkpt lat="49.97581" lon="2.42979">
        <ele>62.5</ele>
        <time>2013-02-17T10:08:21Z</time>
      </trkpt>
      <trkpt lat="49.97568" lon="2.42972">
        <ele>63</ele>
        <time>2013-02-17T10:08:31Z</time>
      </trkpt>
      <trkpt lat="49.97557" lon="2.42933">
        <ele>60.7</ele>
        <time>2013-02-17T10:08:50Z</time>
      </trkpt>
      <trkpt lat="49.97557" lon="2.42933">
        <ele>60.7</ele>
        <time>2013-02-17T10:12:30Z</time>
      </trkpt>
      <trkpt lat="49.97561" lon="2.429">
        <ele>55.3</ele>
        <time>2013-02-17T10:12:43Z</time>
      </trkpt>
      <trkpt lat="49.97568" lon="2.42881">
        <ele>55.8</ele>
        <time>2013-02-17T10:12:54Z</time>
      </trkpt>
      <trkpt lat="49.97574" lon="2.42861">
        <ele>60.3</ele>
        <time>2013-02-17T10:13:07Z</time>
      </trkpt>
      <trkpt lat="49.9758" lon="2.42843">
        <ele>59.7</ele>
        <time>2013-02-17T10:13:17Z</time>
      </trkpt>
      <trkpt lat="49.97588" lon="2.42825">
        <ele>60.9</ele>
        <time>2013-02-17T10:13:30Z</time>
      </trkpt>
      <trkpt lat="49.97595" lon="2.42807">
        <ele>53.3</ele>
        <time>2013-02-17T10:13:42Z</time>
      </trkpt>
      <trkpt lat="49.97599" lon="2.42783">
        <ele>55.7</ele>
        <time>2013-02-17T10:13:54Z</time>
      </trkpt>
      <trkpt lat="49.97605" lon="2.42763">
        <ele>57.9</ele>
        <time>2013-02-17T10:14:05Z</time>
      </trkpt>
      <trkpt lat="49.97609" lon="2.42742">
        <ele>60.1</ele>
        <time>2013-02-17T10:14:16Z</time>
      </trkpt>
      <trkpt lat="49.97616" lon="2.42723">
        <ele>58.2</ele>
        <time>2013-02-17T10:14:27Z</time>
      </trkpt>
      <trkpt lat="49.97621" lon="2.42702">
        <ele>56.5</ele>
        <time>2013-02-17T10:14:37Z</time>
      </trkpt>
      <trkpt lat="49.97629" lon="2.42684">
        <ele>52.3</ele>
        <time>2013-02-17T10:14:50Z</time>
      </trkpt>
      <trkpt lat="49.97636" lon="2.42663">
        <ele>55.4</ele>
        <time>2013-02-17T10:15:02Z</time>
      </trkpt>
      <trkpt lat="49.97645" lon="2.42643">
        <ele>59.6</ele>
        <time>2013-02-17T10:15:15Z</time>
      </trkpt>
      <trkpt lat="49.97648" lon="2.42623">
        <ele>63.1</ele>
        <time>2013-02-17T10:15:24Z</time>
      </trkpt>
      <trkpt lat="49.97658" lon="2.42602">
        <ele>65.8</ele>
        <time>2013-02-17T10:15:38Z</time>
      </trkpt>
      <trkpt lat="49.97663" lon="2.42582">
        <ele>68.2</ele>
        <time>2013-02-17T10:15:49Z</time>
      </trkpt>
      <trkpt lat="49.9767" lon="2.42563">
        <ele>69.3</ele>
        <time>2013-02-17T10:16:01Z</time>
      </trkpt>
      <trkpt lat="49.97675" lon="2.42543">
        <ele>68.5</ele>
        <time>2013-02-17T10:16:11Z</time>
      </trkpt>
      <trkpt lat="49.9768" lon="2.42523">
        <ele>68.5</ele>
        <time>2013-02-17T10:16:24Z</time>
      </trkpt>
      <trkpt lat="49.97685" lon="2.42501">
        <ele>69.7</ele>
        <time>2013-02-17T10:16:35Z</time>
      </trkpt>
      <trkpt lat="49.97689" lon="2.4248">
        <ele>70.9</ele>
        <time>2013-02-17T10:16:46Z</time>
      </trkpt>
      <trkpt lat="49.97694" lon="2.4246">
        <ele>72.1</ele>
        <time>2013-02-17T10:16:58Z</time>
      </trkpt>
      <trkpt lat="49.97701" lon="2.42442">
        <ele>71.3</ele>
        <time>2013-02-17T10:17:09Z</time>
      </trkpt>
      <trkpt lat="49.97709" lon="2.42423">
        <ele>69.6</ele>
        <time>2013-02-17T10:17:21Z</time>
      </trkpt>
      <trkpt lat="49.97721" lon="2.42412">
        <ele>69.7</ele>
        <time>2013-02-17T10:17:33Z</time>
      </trkpt>
      <trkpt lat="49.97734" lon="2.42404">
        <ele>69.6</ele>
        <time>2013-02-17T10:17:44Z</time>
      </trkpt>
      <trkpt lat="49.97747" lon="2.42401">
        <ele>63.1</ele>
        <time>2013-02-17T10:17:55Z</time>
      </trkpt>
      <trkpt lat="49.9776" lon="2.42393">
        <ele>64.6</ele>
        <time>2013-02-17T10:18:10Z</time>
      </trkpt>
      <trkpt lat="49.97763" lon="2.42343">
        <ele>70.7</ele>
        <time>2013-02-17T10:18:39Z</time>
      </trkpt>
      <trkpt lat="49.97763" lon="2.42343">
        <ele>70.7</ele>
        <time>2013-02-17T10:19:56Z</time>
      </trkpt>
      <trkpt lat="49.97757" lon="2.42312">
        <ele>76.5</ele>
        <time>2013-02-17T10:20:03Z</time>
      </trkpt>
      <trkpt lat="49.97764" lon="2.42292">
        <ele>74.3</ele>
        <time>2013-02-17T10:20:29Z</time>
      </trkpt>
      <trkpt lat="49.97762" lon="2.4228">
        <ele>70.8</ele>
        <time>2013-02-17T10:20:39Z</time>
      </trkpt>
      <trkpt lat="49.97772" lon="2.42263">
        <ele>77.4</ele>
        <time>2013-02-17T10:20:59Z</time>
      </trkpt>
      <trkpt lat="49.97779" lon="2.42245">
        <ele>80.4</ele>
        <time>2013-02-17T10:21:14Z</time>
      </trkpt>
      <trkpt lat="49.97782" lon="2.42224">
        <ele>71.4</ele>
        <time>2013-02-17T10:21:27Z</time>
      </trkpt>
      <trkpt lat="49.97786" lon="2.42203">
        <ele>76.8</ele>
        <time>2013-02-17T10:21:40Z</time>
      </trkpt>
      <trkpt lat="49.97793" lon="2.42183">
        <ele>78.2</ele>
        <time>2013-02-17T10:21:51Z</time>
      </trkpt>
      <trkpt lat="49.97797" lon="2.42162">
        <ele>79.2</ele>
        <time>2013-02-17T10:22:03Z</time>
      </trkpt>
      <trkpt lat="49.97802" lon="2.42142">
        <ele>80.3</ele>
        <time>2013-02-17T10:22:15Z</time>
      </trkpt>
      <trkpt lat="49.97809" lon="2.42119">
        <ele>80.8</ele>
        <time>2013-02-17T10:22:27Z</time>
      </trkpt>
      <trkpt lat="49.97815" lon="2.421">
        <ele>74.5</ele>
        <time>2013-02-17T10:22:37Z</time>
      </trkpt>
      <trkpt lat="49.97821" lon="2.4208">
        <ele>75.3</ele>
        <time>2013-02-17T10:22:47Z</time>
      </trkpt>
      <trkpt lat="49.97826" lon="2.4206">
        <ele>77.2</ele>
        <time>2013-02-17T10:22:58Z</time>
      </trkpt>
      <trkpt lat="49.9783" lon="2.42039">
        <ele>79</ele>
        <time>2013-02-17T10:23:09Z</time>
      </trkpt>
      <trkpt lat="49.97835" lon="2.42018">
        <ele>81.1</ele>
        <time>2013-02-17T10:23:19Z</time>
      </trkpt>
      <trkpt lat="49.97839" lon="2.41997">
        <ele>83.3</ele>
        <time>2013-02-17T10:23:29Z</time>
      </trkpt>
      <trkpt lat="49.97841" lon="2.41976">
        <ele>84.1</ele>
        <time>2013-02-17T10:23:38Z</time>
      </trkpt>
      <trkpt lat="49.97841" lon="2.41955">
        <ele>78.8</ele>
        <time>2013-02-17T10:23:48Z</time>
      </trkpt>
      <trkpt lat="49.97844" lon="2.41933">
        <ele>77.7</ele>
        <time>2013-02-17T10:23:59Z</time>
      </trkpt>
      <trkpt lat="49.97849" lon="2.41913">
        <ele>80</ele>
        <time>2013-02-17T10:24:11Z</time>
      </trkpt>
      <trkpt lat="49.97853" lon="2.41891">
        <ele>86.7</ele>
        <time>2013-02-17T10:24:21Z</time>
      </trkpt>
      <trkpt lat="49.97858" lon="2.41871">
        <ele>82.7</ele>
        <time>2013-02-17T10:24:31Z</time>
      </trkpt>
      <trkpt lat="49.97864" lon="2.4185">
        <ele>79.1</ele>
        <time>2013-02-17T10:24:43Z</time>
      </trkpt>
      <trkpt lat="49.97866" lon="2.41827">
        <ele>79.5</ele>
        <time>2013-02-17T10:24:54Z</time>
      </trkpt>
      <trkpt lat="49.97869" lon="2.41805">
        <ele>79.8</ele>
        <time>2013-02-17T10:25:02Z</time>
      </trkpt>
      <trkpt lat="49.97874" lon="2.41786">
        <ele>81.9</ele>
        <time>2013-02-17T10:25:14Z</time>
      </trkpt>
      <trkpt lat="49.97879" lon="2.41765">
        <ele>80.5</ele>
        <time>2013-02-17T10:25:24Z</time>
      </trkpt>
      <trkpt lat="49.97883" lon="2.41744">
        <ele>77.6</ele>
        <time>2013-02-17T10:25:36Z</time>
      </trkpt>
      <trkpt lat="49.97887" lon="2.41722">
        <ele>78</ele>
        <time>2013-02-17T10:25:47Z</time>
      </trkpt>
      <trkpt lat="49.9789" lon="2.41699">
        <ele>77</ele>
        <time>2013-02-17T10:25:59Z</time>
      </trkpt>
      <trkpt lat="49.97896" lon="2.4168">
        <ele>76.8</ele>
        <time>2013-02-17T10:26:09Z</time>
      </trkpt>
      <trkpt lat="49.97901" lon="2.4166">
        <ele>82.5</ele>
        <time>2013-02-17T10:26:18Z</time>
      </trkpt>
      <trkpt lat="49.97907" lon="2.41639">
        <ele>85.4</ele>
        <time>2013-02-17T10:26:30Z</time>
      </trkpt>
      <trkpt lat="49.97911" lon="2.41614">
        <ele>88</ele>
        <time>2013-02-17T10:26:41Z</time>
      </trkpt>
      <trkpt lat="49.97914" lon="2.41594">
        <ele>90</ele>
        <time>2013-02-17T10:26:53Z</time>
      </trkpt>
      <trkpt lat="49.97916" lon="2.41573">
        <ele>85.7</ele>
        <time>2013-02-17T10:27:03Z</time>
      </trkpt>
      <trkpt lat="49.97916" lon="2.41551">
        <ele>86.9</ele>
        <time>2013-02-17T10:27:13Z</time>
      </trkpt>
      <trkpt lat="49.97917" lon="2.4153">
        <ele>91.4</ele>
        <time>2013-02-17T10:27:25Z</time>
      </trkpt>
      <trkpt lat="49.97917" lon="2.41507">
        <ele>89.9</ele>
        <time>2013-02-17T10:27:35Z</time>
      </trkpt>
      <trkpt lat="49.97916" lon="2.41484">
        <ele>87.8</ele>
        <time>2013-02-17T10:27:44Z</time>
      </trkpt>
      <trkpt lat="49.97918" lon="2.41463">
        <ele>88.9</ele>
        <time>2013-02-17T10:27:55Z</time>
      </trkpt>
      <trkpt lat="49.97919" lon="2.4144">
        <ele>87.6</ele>
        <time>2013-02-17T10:28:07Z</time>
      </trkpt>
      <trkpt lat="49.9792" lon="2.41419">
        <ele>86.2</ele>
        <time>2013-02-17T10:28:17Z</time>
      </trkpt>
      <trkpt lat="49.97921" lon="2.41395">
        <ele>85.9</ele>
        <time>2013-02-17T10:28:29Z</time>
      </trkpt>
      <trkpt lat="49.97927" lon="2.41374">
        <ele>90.6</ele>
        <time>2013-02-17T10:28:41Z</time>
      </trkpt>
      <trkpt lat="49.97928" lon="2.41352">
        <ele>94.1</ele>
        <time>2013-02-17T10:28:50Z</time>
      </trkpt>
      <trkpt lat="49.97933" lon="2.41332">
        <ele>98.4</ele>
        <time>2013-02-17T10:29:01Z</time>
      </trkpt>
      <trkpt lat="49.97934" lon="2.41311">
        <ele>100.7</ele>
        <time>2013-02-17T10:29:13Z</time>
      </trkpt>
      <trkpt lat="49.97936" lon="2.4129">
        <ele>96.2</ele>
        <time>2013-02-17T10:29:23Z</time>
      </trkpt>
      <trkpt lat="49.97938" lon="2.41266">
        <ele>98.2</ele>
        <time>2013-02-17T10:29:34Z</time>
      </trkpt>
      <trkpt lat="49.97941" lon="2.41245">
        <ele>97</ele>
        <time>2013-02-17T10:29:45Z</time>
      </trkpt>
      <trkpt lat="49.97945" lon="2.41224">
        <ele>99.7</ele>
        <time>2013-02-17T10:29:55Z</time>
      </trkpt>
      <trkpt lat="49.97946" lon="2.41202">
        <ele>101.4</ele>
        <time>2013-02-17T10:30:05Z</time>
      </trkpt>
      <trkpt lat="49.97951" lon="2.41181">
        <ele>95.1</ele>
        <time>2013-02-17T10:30:15Z</time>
      </trkpt>
      <trkpt lat="49.97956" lon="2.41161">
        <ele>95.4</ele>
        <time>2013-02-17T10:30:26Z</time>
      </trkpt>
      <trkpt lat="49.97962" lon="2.41142">
        <ele>98</ele>
        <time>2013-02-17T10:30:36Z</time>
      </trkpt>
      <trkpt lat="49.97968" lon="2.41122">
        <ele>97.8</ele>
        <time>2013-02-17T10:30:46Z</time>
      </trkpt>
      <trkpt lat="49.97973" lon="2.41101">
        <ele>94.1</ele>
        <time>2013-02-17T10:30:59Z</time>
      </trkpt>
      <trkpt lat="49.9798" lon="2.41082">
        <ele>87.2</ele>
        <time>2013-02-17T10:31:08Z</time>
      </trkpt>
      <trkpt lat="49.9799" lon="2.41064">
        <ele>85.9</ele>
        <time>2013-02-17T10:31:20Z</time>
      </trkpt>
      <trkpt lat="49.97995" lon="2.41043">
        <ele>82.3</ele>
        <time>2013-02-17T10:31:32Z</time>
      </trkpt>
      <trkpt lat="49.98004" lon="2.41024">
        <ele>85.1</ele>
        <time>2013-02-17T10:31:40Z</time>
      </trkpt>
      <trkpt lat="49.98013" lon="2.41008">
        <ele>87.6</ele>
        <time>2013-02-17T10:31:50Z</time>
      </trkpt>
      <trkpt lat="49.98024" lon="2.40993">
        <ele>89.7</ele>
        <time>2013-02-17T10:32:02Z</time>
      </trkpt>
      <trkpt lat="49.98035" lon="2.40978">
        <ele>90.5</ele>
        <time>2013-02-17T10:32:13Z</time>
      </trkpt>
      <trkpt lat="49.98042" lon="2.40958">
        <ele>90.8</ele>
        <time>2013-02-17T10:32:23Z</time>
      </trkpt>
      <trkpt lat="49.98047" lon="2.40938">
        <ele>91</ele>
        <time>2013-02-17T10:32:33Z</time>
      </trkpt>
      <trkpt lat="49.9805" lon="2.40914">
        <ele>88.5</ele>
        <time>2013-02-17T10:32:42Z</time>
      </trkpt>
      <trkpt lat="49.98053" lon="2.40893">
        <ele>85.2</ele>
        <time>2013-02-17T10:32:51Z</time>
      </trkpt>
      <trkpt lat="49.98056" lon="2.40873">
        <ele>85.6</ele>
        <time>2013-02-17T10:33:01Z</time>
      </trkpt>
      <trkpt lat="49.98064" lon="2.40855">
        <ele>85.2</ele>
        <time>2013-02-17T10:33:12Z</time>
      </trkpt>
      <trkpt lat="49.98071" lon="2.40834">
        <ele>84.6</ele>
        <time>2013-02-17T10:33:23Z</time>
      </trkpt>
      <trkpt lat="49.98079" lon="2.40814">
        <ele>80.9</ele>
        <time>2013-02-17T10:33:37Z</time>
      </trkpt>
      <trkpt lat="49.9808" lon="2.40793">
        <ele>82</ele>
        <time>2013-02-17T10:33:43Z</time>
      </trkpt>
      <trkpt lat="49.98081" lon="2.40769">
        <ele>85.9</ele>
        <time>2013-02-17T10:33:52Z</time>
      </trkpt>
      <trkpt lat="49.98087" lon="2.40745">
        <ele>92.2</ele>
        <time>2013-02-17T10:34:07Z</time>
      </trkpt>
      <trkpt lat="49.98092" lon="2.4072">
        <ele>93.7</ele>
        <time>2013-02-17T10:34:20Z</time>
      </trkpt>
      <trkpt lat="49.98096" lon="2.40698">
        <ele>96.7</ele>
        <time>2013-02-17T10:34:29Z</time>
      </trkpt>
      <trkpt lat="49.98099" lon="2.40674">
        <ele>90.9</ele>
        <time>2013-02-17T10:34:42Z</time>
      </trkpt>
      <trkpt lat="49.98102" lon="2.40651">
        <ele>91.6</ele>
        <time>2013-02-17T10:34:54Z</time>
      </trkpt>
      <trkpt lat="49.9811" lon="2.40632">
        <ele>93.2</ele>
        <time>2013-02-17T10:35:05Z</time>
      </trkpt>
      <trkpt lat="49.98114" lon="2.4061">
        <ele>95.1</ele>
        <time>2013-02-17T10:35:14Z</time>
      </trkpt>
      <trkpt lat="49.98116" lon="2.4059">
        <ele>97</ele>
        <time>2013-02-17T10:35:23Z</time>
      </trkpt>
      <trkpt lat="49.98119" lon="2.40567">
        <ele>94.8</ele>
        <time>2013-02-17T10:35:35Z</time>
      </trkpt>
      <trkpt lat="49.98121" lon="2.40546">
        <ele>97.3</ele>
        <time>2013-02-17T10:35:45Z</time>
      </trkpt>
      <trkpt lat="49.98123" lon="2.40522">
        <ele>97.7</ele>
        <time>2013-02-17T10:35:55Z</time>
      </trkpt>
      <trkpt lat="49.98125" lon="2.40501">
        <ele>99.6</ele>
        <time>2013-02-17T10:36:06Z</time>
      </trkpt>
      <trkpt lat="49.98127" lon="2.40478">
        <ele>98.5</ele>
        <time>2013-02-17T10:36:16Z</time>
      </trkpt>
      <trkpt lat="49.98131" lon="2.40457">
        <ele>97</ele>
        <time>2013-02-17T10:36:28Z</time>
      </trkpt>
      <trkpt lat="49.98134" lon="2.40437">
        <ele>95.1</ele>
        <time>2013-02-17T10:36:40Z</time>
      </trkpt>
      <trkpt lat="49.98135" lon="2.40414">
        <ele>89.6</ele>
        <time>2013-02-17T10:36:51Z</time>
      </trkpt>
      <trkpt lat="49.9814" lon="2.40394">
        <ele>94.6</ele>
        <time>2013-02-17T10:37:01Z</time>
      </trkpt>
      <trkpt lat="49.98151" lon="2.40379">
        <ele>94.6</ele>
        <time>2013-02-17T10:37:10Z</time>
      </trkpt>
      <trkpt lat="49.9816" lon="2.40363">
        <ele>92.1</ele>
        <time>2013-02-17T10:37:20Z</time>
      </trkpt>
      <trkpt lat="49.9817" lon="2.40345">
        <ele>86.3</ele>
        <time>2013-02-17T10:37:32Z</time>
      </trkpt>
      <trkpt lat="49.9818" lon="2.40324">
        <ele>80.8</ele>
        <time>2013-02-17T10:37:45Z</time>
      </trkpt>
      <trkpt lat="49.98184" lon="2.40302">
        <ele>71.9</ele>
        <time>2013-02-17T10:37:58Z</time>
      </trkpt>
      <trkpt lat="49.9819" lon="2.40281">
        <ele>73.5</ele>
        <time>2013-02-17T10:38:10Z</time>
      </trkpt>
      <trkpt lat="49.98195" lon="2.40258">
        <ele>79.5</ele>
        <time>2013-02-17T10:38:16Z</time>
      </trkpt>
      <trkpt lat="49.98201" lon="2.40244">
        <ele>85.4</ele>
        <time>2013-02-17T10:38:22Z</time>
      </trkpt>
      <trkpt lat="49.982" lon="2.40221">
        <ele>92.4</ele>
        <time>2013-02-17T10:38:29Z</time>
      </trkpt>
      <trkpt lat="49.98208" lon="2.40203">
        <ele>101.4</ele>
        <time>2013-02-17T10:38:40Z</time>
      </trkpt>
      <trkpt lat="49.98218" lon="2.40188">
        <ele>102.9</ele>
        <time>2013-02-17T10:38:50Z</time>
      </trkpt>
      <trkpt lat="49.98227" lon="2.40173">
        <ele>99.1</ele>
        <time>2013-02-17T10:39:01Z</time>
      </trkpt>
      <trkpt lat="49.98249" lon="2.40144">
        <ele>97.8</ele>
        <time>2013-02-17T10:39:19Z</time>
      </trkpt>
      <trkpt lat="49.98249" lon="2.40144">
        <ele>97.8</ele>
        <time>2013-02-17T10:43:50Z</time>
      </trkpt>
      <trkpt lat="49.98258" lon="2.40128">
        <ele>96</ele>
        <time>2013-02-17T10:43:52Z</time>
      </trkpt>
      <trkpt lat="49.98268" lon="2.40113">
        <ele>94.3</ele>
        <time>2013-02-17T10:44:02Z</time>
      </trkpt>
      <trkpt lat="49.98279" lon="2.40095">
        <ele>88.1</ele>
        <time>2013-02-17T10:44:15Z</time>
      </trkpt>
      <trkpt lat="49.9829" lon="2.40082">
        <ele>90.7</ele>
        <time>2013-02-17T10:44:28Z</time>
      </trkpt>
      <trkpt lat="49.98301" lon="2.40069">
        <ele>88.9</ele>
        <time>2013-02-17T10:44:38Z</time>
      </trkpt>
      <trkpt lat="49.98313" lon="2.40056">
        <ele>84.3</ele>
        <time>2013-02-17T10:44:49Z</time>
      </trkpt>
      <trkpt lat="49.98325" lon="2.40044">
        <ele>84</ele>
        <time>2013-02-17T10:45:00Z</time>
      </trkpt>
      <trkpt lat="49.98334" lon="2.40025">
        <ele>89.1</ele>
        <time>2013-02-17T10:45:15Z</time>
      </trkpt>
      <trkpt lat="49.98348" lon="2.40015">
        <ele>93.2</ele>
        <time>2013-02-17T10:45:23Z</time>
      </trkpt>
      <trkpt lat="49.98358" lon="2.4">
        <ele>97.7</ele>
        <time>2013-02-17T10:45:32Z</time>
      </trkpt>
      <trkpt lat="49.98368" lon="2.39984">
        <ele>97</ele>
        <time>2013-02-17T10:45:43Z</time>
      </trkpt>
      <trkpt lat="49.98378" lon="2.3997">
        <ele>91.1</ele>
        <time>2013-02-17T10:45:53Z</time>
      </trkpt>
      <trkpt lat="49.98391" lon="2.39959">
        <ele>89.1</ele>
        <time>2013-02-17T10:46:05Z</time>
      </trkpt>
      <trkpt lat="49.98402" lon="2.39946">
        <ele>91.9</ele>
        <time>2013-02-17T10:46:15Z</time>
      </trkpt>
      <trkpt lat="49.98412" lon="2.39932">
        <ele>91.6</ele>
        <time>2013-02-17T10:46:26Z</time>
      </trkpt>
      <trkpt lat="49.98424" lon="2.39911">
        <ele>91.4</ele>
        <time>2013-02-17T10:46:36Z</time>
      </trkpt>
      <trkpt lat="49.98432" lon="2.39894">
        <ele>91</ele>
        <time>2013-02-17T10:46:52Z</time>
      </trkpt>
      <trkpt lat="49.98441" lon="2.39877">
        <ele>93.5</ele>
        <time>2013-02-17T10:47:02Z</time>
      </trkpt>
      <trkpt lat="49.98451" lon="2.39862">
        <ele>91.3</ele>
        <time>2013-02-17T10:47:13Z</time>
      </trkpt>
      <trkpt lat="49.9846" lon="2.39845">
        <ele>86.7</ele>
        <time>2013-02-17T10:47:23Z</time>
      </trkpt>
      <trkpt lat="49.98469" lon="2.39827">
        <ele>96</ele>
        <time>2013-02-17T10:47:34Z</time>
      </trkpt>
      <trkpt lat="49.98478" lon="2.39809">
        <ele>92.2</ele>
        <time>2013-02-17T10:47:45Z</time>
      </trkpt>
      <trkpt lat="49.98485" lon="2.39789">
        <ele>89.3</ele>
        <time>2013-02-17T10:47:57Z</time>
      </trkpt>
      <trkpt lat="49.98491" lon="2.3977">
        <ele>87.4</ele>
        <time>2013-02-17T10:48:07Z</time>
      </trkpt>
      <trkpt lat="49.98497" lon="2.39751">
        <ele>85.3</ele>
        <time>2013-02-17T10:48:18Z</time>
      </trkpt>
      <trkpt lat="49.98506" lon="2.39733">
        <ele>80.9</ele>
        <time>2013-02-17T10:48:29Z</time>
      </trkpt>
      <trkpt lat="49.98516" lon="2.39709">
        <ele>79.6</ele>
        <time>2013-02-17T10:48:39Z</time>
      </trkpt>
      <trkpt lat="49.98523" lon="2.39692">
        <ele>84.7</ele>
        <time>2013-02-17T10:48:52Z</time>
      </trkpt>
      <trkpt lat="49.98531" lon="2.39674">
        <ele>85.6</ele>
        <time>2013-02-17T10:49:04Z</time>
      </trkpt>
      <trkpt lat="49.98539" lon="2.39657">
        <ele>86.8</ele>
        <time>2013-02-17T10:49:14Z</time>
      </trkpt>
      <trkpt lat="49.98547" lon="2.3964">
        <ele>83.1</ele>
        <time>2013-02-17T10:49:25Z</time>
      </trkpt>
      <trkpt lat="49.98554" lon="2.3962">
        <ele>81.8</ele>
        <time>2013-02-17T10:49:37Z</time>
      </trkpt>
      <trkpt lat="49.98557" lon="2.39598">
        <ele>84.6</ele>
        <time>2013-02-17T10:49:48Z</time>
      </trkpt>
      <trkpt lat="49.98561" lon="2.39577">
        <ele>85.1</ele>
        <time>2013-02-17T10:49:58Z</time>
      </trkpt>
      <trkpt lat="49.98567" lon="2.39558">
        <ele>80.4</ele>
        <time>2013-02-17T10:50:09Z</time>
      </trkpt>
      <trkpt lat="49.98572" lon="2.39538">
        <ele>76.7</ele>
        <time>2013-02-17T10:50:19Z</time>
      </trkpt>
      <trkpt lat="49.98575" lon="2.39515">
        <ele>77.1</ele>
        <time>2013-02-17T10:50:31Z</time>
      </trkpt>
      <trkpt lat="49.9858" lon="2.39494">
        <ele>73</ele>
        <time>2013-02-17T10:50:43Z</time>
      </trkpt>
      <trkpt lat="49.98585" lon="2.39475">
        <ele>69.9</ele>
        <time>2013-02-17T10:50:52Z</time>
      </trkpt>
      <trkpt lat="49.98589" lon="2.39453">
        <ele>75.1</ele>
        <time>2013-02-17T10:51:04Z</time>
      </trkpt>
      <trkpt lat="49.98594" lon="2.39433">
        <ele>77.5</ele>
        <time>2013-02-17T10:51:12Z</time>
      </trkpt>
      <trkpt lat="49.98599" lon="2.39413">
        <ele>80.8</ele>
        <time>2013-02-17T10:51:23Z</time>
      </trkpt>
      <trkpt lat="49.98605" lon="2.39387">
        <ele>75.1</ele>
        <time>2013-02-17T10:51:36Z</time>
      </trkpt>
      <trkpt lat="49.98609" lon="2.39366">
        <ele>75.2</ele>
        <time>2013-02-17T10:51:47Z</time>
      </trkpt>
      <trkpt lat="49.98614" lon="2.39345">
        <ele>75.5</ele>
        <time>2013-02-17T10:51:59Z</time>
      </trkpt>
      <trkpt lat="49.98617" lon="2.39325">
        <ele>77.1</ele>
        <time>2013-02-17T10:52:09Z</time>
      </trkpt>
      <trkpt lat="49.9862" lon="2.39303">
        <ele>79</ele>
        <time>2013-02-17T10:52:20Z</time>
      </trkpt>
      <trkpt lat="49.98625" lon="2.39282">
        <ele>80.8</ele>
        <time>2013-02-17T10:52:31Z</time>
      </trkpt>
      <trkpt lat="49.98629" lon="2.3926">
        <ele>83</ele>
        <time>2013-02-17T10:52:44Z</time>
      </trkpt>
      <trkpt lat="49.98634" lon="2.39237">
        <ele>84.3</ele>
        <time>2013-02-17T10:52:54Z</time>
      </trkpt>
      <trkpt lat="49.98639" lon="2.39216">
        <ele>82.4</ele>
        <time>2013-02-17T10:53:05Z</time>
      </trkpt>
      <trkpt lat="49.98644" lon="2.39196">
        <ele>81.1</ele>
        <time>2013-02-17T10:53:15Z</time>
      </trkpt>
      <trkpt lat="49.98647" lon="2.39175">
        <ele>79.5</ele>
        <time>2013-02-17T10:53:24Z</time>
      </trkpt>
      <trkpt lat="49.98651" lon="2.39154">
        <ele>73.1</ele>
        <time>2013-02-17T10:53:37Z</time>
      </trkpt>
      <trkpt lat="49.98658" lon="2.39131">
        <ele>76.4</ele>
        <time>2013-02-17T10:53:49Z</time>
      </trkpt>
      <trkpt lat="49.98666" lon="2.39115">
        <ele>78.4</ele>
        <time>2013-02-17T10:54:02Z</time>
      </trkpt>
      <trkpt lat="49.98673" lon="2.39094">
        <ele>74.9</ele>
        <time>2013-02-17T10:54:15Z</time>
      </trkpt>
      <trkpt lat="49.98679" lon="2.39075">
        <ele>73.7</ele>
        <time>2013-02-17T10:54:27Z</time>
      </trkpt>
      <trkpt lat="49.98686" lon="2.39055">
        <ele>76.2</ele>
        <time>2013-02-17T10:54:35Z</time>
      </trkpt>
      <trkpt lat="49.98694" lon="2.39037">
        <ele>75.1</ele>
        <time>2013-02-17T10:54:46Z</time>
      </trkpt>
      <trkpt lat="49.98699" lon="2.39017">
        <ele>77.1</ele>
        <time>2013-02-17T10:54:56Z</time>
      </trkpt>
      <trkpt lat="49.98707" lon="2.38997">
        <ele>77.4</ele>
        <time>2013-02-17T10:55:06Z</time>
      </trkpt>
      <trkpt lat="49.98713" lon="2.38978">
        <ele>81.9</ele>
        <time>2013-02-17T10:55:16Z</time>
      </trkpt>
      <trkpt lat="49.9872" lon="2.38958">
        <ele>80.1</ele>
        <time>2013-02-17T10:55:26Z</time>
      </trkpt>
      <trkpt lat="49.98727" lon="2.3894">
        <ele>78.6</ele>
        <time>2013-02-17T10:55:37Z</time>
      </trkpt>
      <trkpt lat="49.98734" lon="2.38923">
        <ele>77.3</ele>
        <time>2013-02-17T10:55:47Z</time>
      </trkpt>
      <trkpt lat="49.98743" lon="2.38903">
        <ele>76.8</ele>
        <time>2013-02-17T10:55:59Z</time>
      </trkpt>
      <trkpt lat="49.98749" lon="2.38883">
        <ele>80.3</ele>
        <time>2013-02-17T10:56:10Z</time>
      </trkpt>
      <trkpt lat="49.98757" lon="2.38864">
        <ele>75.9</ele>
        <time>2013-02-17T10:56:21Z</time>
      </trkpt>
      <trkpt lat="49.98767" lon="2.38847">
        <ele>82.5</ele>
        <time>2013-02-17T10:56:31Z</time>
      </trkpt>
      <trkpt lat="49.98777" lon="2.38833">
        <ele>84.6</ele>
        <time>2013-02-17T10:56:42Z</time>
      </trkpt>
      <trkpt lat="49.98789" lon="2.38821">
        <ele>89.6</ele>
        <time>2013-02-17T10:56:54Z</time>
      </trkpt>
      <trkpt lat="49.98801" lon="2.38811">
        <ele>86.9</ele>
        <time>2013-02-17T10:57:01Z</time>
      </trkpt>
      <trkpt lat="49.98813" lon="2.38798">
        <ele>85.9</ele>
        <time>2013-02-17T10:57:13Z</time>
      </trkpt>
      <trkpt lat="49.98816" lon="2.38794">
        <ele>85.6</ele>
        <time>2013-02-17T10:57:16Z</time>
      </trkpt>
      <trkpt lat="49.98801" lon="2.38788">
        <ele>88.9</ele>
        <time>2013-02-17T10:57:26Z</time>
      </trkpt>
      <trkpt lat="49.98793" lon="2.38769">
        <ele>79.3</ele>
        <time>2013-02-17T10:57:39Z</time>
      </trkpt>
      <trkpt lat="49.98785" lon="2.3875">
        <ele>77.2</ele>
        <time>2013-02-17T10:57:51Z</time>
      </trkpt>
      <trkpt lat="49.98775" lon="2.38735">
        <ele>77.1</ele>
        <time>2013-02-17T10:58:03Z</time>
      </trkpt>
      <trkpt lat="49.98769" lon="2.38719">
        <ele>77.1</ele>
        <time>2013-02-17T10:58:13Z</time>
      </trkpt>
      <trkpt lat="49.98763" lon="2.38698">
        <ele>82.4</ele>
        <time>2013-02-17T10:58:25Z</time>
      </trkpt>
      <trkpt lat="49.9876" lon="2.38676">
        <ele>84</ele>
        <time>2013-02-17T10:58:33Z</time>
      </trkpt>
      <trkpt lat="49.98754" lon="2.38661">
        <ele>83.6</ele>
        <time>2013-02-17T10:58:42Z</time>
      </trkpt>
      <trkpt lat="49.98742" lon="2.38653">
        <ele>84.9</ele>
        <time>2013-02-17T10:58:51Z</time>
      </trkpt>
      <trkpt lat="49.98735" lon="2.38633">
        <ele>87</ele>
        <time>2013-02-17T10:59:03Z</time>
      </trkpt>
      <trkpt lat="49.98728" lon="2.38615">
        <ele>89.1</ele>
        <time>2013-02-17T10:59:15Z</time>
      </trkpt>
      <trkpt lat="49.98726" lon="2.38593">
        <ele>90.9</ele>
        <time>2013-02-17T10:59:24Z</time>
      </trkpt>
      <trkpt lat="49.98721" lon="2.38574">
        <ele>93.3</ele>
        <time>2013-02-17T10:59:33Z</time>
      </trkpt>
      <trkpt lat="49.98712" lon="2.38558">
        <ele>94</ele>
        <time>2013-02-17T10:59:43Z</time>
      </trkpt>
      <trkpt lat="49.987" lon="2.38544">
        <ele>92.6</ele>
        <time>2013-02-17T10:59:55Z</time>
      </trkpt>
      <trkpt lat="49.98697" lon="2.38524">
        <ele>91.3</ele>
        <time>2013-02-17T11:00:06Z</time>
      </trkpt>
      <trkpt lat="49.98702" lon="2.38483">
        <ele>88.2</ele>
        <time>2013-02-17T11:00:22Z</time>
      </trkpt>
      <trkpt lat="49.98702" lon="2.38483">
        <ele>88.2</ele>
        <time>2013-02-17T11:02:07Z</time>
      </trkpt>
      <trkpt lat="49.98705" lon="2.38462">
        <ele>88.2</ele>
        <time>2013-02-17T11:02:14Z</time>
      </trkpt>
      <trkpt lat="49.98708" lon="2.3844">
        <ele>86.9</ele>
        <time>2013-02-17T11:02:25Z</time>
      </trkpt>
      <trkpt lat="49.98712" lon="2.38417">
        <ele>85.5</ele>
        <time>2013-02-17T11:02:36Z</time>
      </trkpt>
      <trkpt lat="49.98712" lon="2.38394">
        <ele>84.2</ele>
        <time>2013-02-17T11:02:52Z</time>
      </trkpt>
    </trkseg>
  </trk>
</gpx>